<?xml version="1.0" encoding="UTF-8" standalone="no" ?><gpx xmlns="http://www.topografix.com/GPX/1/1" xmlns:gpxx="http://www.garmin.com/xmlschemas/GpxExtensions/v3" xmlns:wptx1="http://www.garmin.com/xmlschemas/WaypointExtension/v1" xmlns:gpxtpx="http://www.garmin.com/xmlschemas/TrackPointExtension/v1" creator="GuideVTT.com" version="1.1" xmlns:xsi="http://www.w3.org/2001/XMLSchema-instance" xsi:schemaLocation="http://www.topografix.com/GPX/1/1 http://www.topografix.com/GPX/1/1/gpx.xsd http://www.garmin.com/xmlschemas/GpxExtensions/v3 http://www8.garmin.com/xmlschemas/GpxExtensionsv3.xsd http://www.garmin.com/xmlschemas/WaypointExtension/v1 http://www8.garmin.com/xmlschemas/WaypointExtensionv1.xsd http://www.garmin.com/xmlschemas/TrackPointExtension/v1 http://www.garmin.com/xmlschemas/TrackPointExtensionv1.xsd">
<metadata><link href="http://www.garmin.com"><text>Garmin International</text></link><time>2013-06-22T15:13:50Z</time></metadata>
<trk><name>filefafa8.gpx</name><extensions><gpxx:TrackExtension><gpxx:DisplayColor>Cyan</gpxx:DisplayColor></gpxx:TrackExtension></extensions><trkseg>
<trkpt lat="48.04960392" lon="0.41365949"><ele>64.545654</ele><time>2007-08-02T17:11:29Z</time></trkpt>
<trkpt lat="48.04963024" lon="0.41367542"><ele>64.065063</ele><time>2007-08-02T17:11:31Z</time></trkpt>
<trkpt lat="48.04963636" lon="0.41369646"><ele>64.065063</ele><time>2007-08-02T17:11:32Z</time></trkpt>
<trkpt lat="48.04963477" lon="0.41383627"><ele>64.545654</ele><time>2007-08-02T17:11:35Z</time></trkpt>
<trkpt lat="48.04959009" lon="0.41439266"><ele>64.065063</ele><time>2007-08-02T17:11:43Z</time></trkpt>
<trkpt lat="48.04957316" lon="0.41461210"><ele>64.065063</ele><time>2007-08-02T17:11:46Z</time></trkpt>
<trkpt lat="48.04946822" lon="0.41489088"><ele>63.103638</ele><time>2007-08-02T17:11:51Z</time></trkpt>
<trkpt lat="48.04934207" lon="0.41492868"><ele>63.103638</ele><time>2007-08-02T17:11:54Z</time></trkpt>
<trkpt lat="48.04906690" lon="0.41500999"><ele>63.584351</ele><time>2007-08-02T17:12:00Z</time></trkpt>
<trkpt lat="48.04896330" lon="0.41503773"><ele>63.584351</ele><time>2007-08-02T17:12:02Z</time></trkpt>
<trkpt lat="48.04890957" lon="0.41504997"><ele>63.584351</ele><time>2007-08-02T17:12:03Z</time></trkpt>
<trkpt lat="48.04885576" lon="0.41506154"><ele>63.103638</ele><time>2007-08-02T17:12:04Z</time></trkpt>
<trkpt lat="48.04880186" lon="0.41507319"><ele>63.584351</ele><time>2007-08-02T17:12:05Z</time></trkpt>
<trkpt lat="48.04874805" lon="0.41508333"><ele>63.584351</ele><time>2007-08-02T17:12:06Z</time></trkpt>
<trkpt lat="48.04869449" lon="0.41509238"><ele>63.584351</ele><time>2007-08-02T17:12:07Z</time></trkpt>
<trkpt lat="48.04845158" lon="0.41515147"><ele>63.103638</ele><time>2007-08-02T17:12:12Z</time></trkpt>
<trkpt lat="48.04839257" lon="0.41530796"><ele>62.622925</ele><time>2007-08-02T17:12:15Z</time></trkpt>
<trkpt lat="48.04838687" lon="0.41537963"><ele>62.142334</ele><time>2007-08-02T17:12:16Z</time></trkpt>
<trkpt lat="48.04838503" lon="0.41545465"><ele>62.622925</ele><time>2007-08-02T17:12:17Z</time></trkpt>
<trkpt lat="48.04838813" lon="0.41553117"><ele>62.622925</ele><time>2007-08-02T17:12:18Z</time></trkpt>
<trkpt lat="48.04839475" lon="0.41560913"><ele>63.103638</ele><time>2007-08-02T17:12:19Z</time></trkpt>
<trkpt lat="48.04841537" lon="0.41577433"><ele>63.584351</ele><time>2007-08-02T17:12:21Z</time></trkpt>
<trkpt lat="48.04845812" lon="0.41620944"><ele>63.103638</ele><time>2007-08-02T17:12:26Z</time></trkpt>
<trkpt lat="48.04843448" lon="0.41646483"><ele>63.103638</ele><time>2007-08-02T17:12:29Z</time></trkpt>
<trkpt lat="48.04851805" lon="0.41667958"><ele>62.142334</ele><time>2007-08-02T17:12:33Z</time></trkpt>
<trkpt lat="48.04866993" lon="0.41666877"><ele>62.622925</ele><time>2007-08-02T17:12:36Z</time></trkpt>
<trkpt lat="48.04879147" lon="0.41664043"><ele>62.622925</ele><time>2007-08-02T17:12:38Z</time></trkpt>
<trkpt lat="48.04898559" lon="0.41662836"><ele>62.622925</ele><time>2007-08-02T17:12:41Z</time></trkpt>
<trkpt lat="48.04911467" lon="0.41660137"><ele>62.622925</ele><time>2007-08-02T17:12:43Z</time></trkpt>
<trkpt lat="48.04917812" lon="0.41658754"><ele>62.622925</ele><time>2007-08-02T17:12:44Z</time></trkpt>
<trkpt lat="48.04924107" lon="0.41657413"><ele>63.103638</ele><time>2007-08-02T17:12:45Z</time></trkpt>
<trkpt lat="48.04947115" lon="0.41652418"><ele>62.622925</ele><time>2007-08-02T17:12:49Z</time></trkpt>
<trkpt lat="48.04959605" lon="0.41640582"><ele>62.142334</ele><time>2007-08-02T17:12:53Z</time></trkpt>
<trkpt lat="48.04960577" lon="0.41622519"><ele>62.622925</ele><time>2007-08-02T17:12:56Z</time></trkpt>
<trkpt lat="48.04957895" lon="0.41599344"><ele>62.622925</ele><time>2007-08-02T17:12:59Z</time></trkpt>
<trkpt lat="48.04950150" lon="0.41530495"><ele>62.142334</ele><time>2007-08-02T17:13:07Z</time></trkpt>
<trkpt lat="48.04949580" lon="0.41521786"><ele>63.103638</ele><time>2007-08-02T17:13:08Z</time></trkpt>
<trkpt lat="48.04950024" lon="0.41504796"><ele>62.622925</ele><time>2007-08-02T17:13:10Z</time></trkpt>
<trkpt lat="48.04951516" lon="0.41496850"><ele>63.103638</ele><time>2007-08-02T17:13:11Z</time></trkpt>
<trkpt lat="48.04954014" lon="0.41489943"><ele>62.142334</ele><time>2007-08-02T17:13:12Z</time></trkpt>
<trkpt lat="48.04970166" lon="0.41459533"><ele>63.103638</ele><time>2007-08-02T17:13:17Z</time></trkpt>
<trkpt lat="48.04994993" lon="0.41424044"><ele>64.065063</ele><time>2007-08-02T17:13:23Z</time></trkpt>
<trkpt lat="48.05021044" lon="0.41388966"><ele>65.50708</ele><time>2007-08-02T17:13:29Z</time></trkpt>
<trkpt lat="48.05027540" lon="0.41370274"><ele>66.948975</ele><time>2007-08-02T17:13:33Z</time></trkpt>
<trkpt lat="48.05024195" lon="0.41351650"><ele>66.468262</ele><time>2007-08-02T17:13:36Z</time></trkpt>
<trkpt lat="48.05022217" lon="0.41345087"><ele>66.948975</ele><time>2007-08-02T17:13:37Z</time></trkpt>
<trkpt lat="48.05010483" lon="0.41283924"><ele>67.429688</ele><time>2007-08-02T17:13:46Z</time></trkpt>
<trkpt lat="48.04999896" lon="0.41219073"><ele>67.910278</ele><time>2007-08-02T17:13:55Z</time></trkpt>
<trkpt lat="48.04987173" lon="0.41140384"><ele>68.871582</ele><time>2007-08-02T17:14:05Z</time></trkpt>
<trkpt lat="48.04985873" lon="0.41132622"><ele>69.352295</ele><time>2007-08-02T17:14:06Z</time></trkpt>
<trkpt lat="48.04981825" lon="0.41108424"><ele>69.352295</ele><time>2007-08-02T17:14:09Z</time></trkpt>
<trkpt lat="48.04971465" lon="0.41042224"><ele>70.313477</ele><time>2007-08-02T17:14:17Z</time></trkpt>
<trkpt lat="48.04969126" lon="0.41025963"><ele>71.274902</ele><time>2007-08-02T17:14:19Z</time></trkpt>
<trkpt lat="48.04967827" lon="0.41017966"><ele>71.274902</ele><time>2007-08-02T17:14:20Z</time></trkpt>
<trkpt lat="48.04955422" lon="0.40940157"><ele>72.236206</ele><time>2007-08-02T17:14:30Z</time></trkpt>
<trkpt lat="48.04947979" lon="0.40894023"><ele>72.716919</ele><time>2007-08-02T17:14:36Z</time></trkpt>
<trkpt lat="48.04945590" lon="0.40878844"><ele>72.716919</ele><time>2007-08-02T17:14:38Z</time></trkpt>
<trkpt lat="48.04944358" lon="0.40871099"><ele>72.236206</ele><time>2007-08-02T17:14:39Z</time></trkpt>
<trkpt lat="48.04941776" lon="0.40855517"><ele>72.236206</ele><time>2007-08-02T17:14:41Z</time></trkpt>
<trkpt lat="48.04940376" lon="0.40847688"><ele>72.236206</ele><time>2007-08-02T17:14:42Z</time></trkpt>
<trkpt lat="48.04935205" lon="0.40825585"><ele>72.716919</ele><time>2007-08-02T17:14:45Z</time></trkpt>
<trkpt lat="48.04932917" lon="0.40783114"><ele>72.716919</ele><time>2007-08-02T17:14:51Z</time></trkpt>
<trkpt lat="48.04937116" lon="0.40724994"><ele>74.639526</ele><time>2007-08-02T17:15:00Z</time></trkpt>
<trkpt lat="48.04936479" lon="0.40712530"><ele>75.60083</ele><time>2007-08-02T17:15:02Z</time></trkpt>
<trkpt lat="48.04929363" lon="0.40661987"><ele>76.081421</ele><time>2007-08-02T17:15:10Z</time></trkpt>
<trkpt lat="48.04921475" lon="0.40620178"><ele>78.484741</ele><time>2007-08-02T17:15:17Z</time></trkpt>
<trkpt lat="48.04915600" lon="0.40591864"><ele>80.407471</ele><time>2007-08-02T17:15:22Z</time></trkpt>
<trkpt lat="48.04910914" lon="0.40576743"><ele>81.368774</ele><time>2007-08-02T17:15:25Z</time></trkpt>
<trkpt lat="48.04908819" lon="0.40571923"><ele>80.888184</ele><time>2007-08-02T17:15:26Z</time></trkpt>
<trkpt lat="48.04888702" lon="0.40530005"><ele>83.291382</ele><time>2007-08-02T17:15:35Z</time></trkpt>
<trkpt lat="48.04868736" lon="0.40489119"><ele>84.733398</ele><time>2007-08-02T17:15:44Z</time></trkpt>
<trkpt lat="48.04859072" lon="0.40470444"><ele>85.213989</ele><time>2007-08-02T17:15:48Z</time></trkpt>
<trkpt lat="48.04852744" lon="0.40446446"><ele>85.213989</ele><time>2007-08-02T17:15:52Z</time></trkpt>
<trkpt lat="48.04851696" lon="0.40439716"><ele>85.213989</ele><time>2007-08-02T17:15:53Z</time></trkpt>
<trkpt lat="48.04849072" lon="0.40390078"><ele>84.252686</ele><time>2007-08-02T17:16:00Z</time></trkpt>
<trkpt lat="48.04855853" lon="0.40339778"><ele>83.771973</ele><time>2007-08-02T17:16:07Z</time></trkpt>
<trkpt lat="48.04859072" lon="0.40325889"><ele>83.291382</ele><time>2007-08-02T17:16:09Z</time></trkpt>
<trkpt lat="48.04872106" lon="0.40290006"><ele>81.849365</ele><time>2007-08-02T17:16:14Z</time></trkpt>
<trkpt lat="48.04868527" lon="0.40253612"><ele>80.888184</ele><time>2007-08-02T17:16:19Z</time></trkpt>
<trkpt lat="48.04863087" lon="0.40241936"><ele>78.484741</ele><time>2007-08-02T17:16:21Z</time></trkpt>
<trkpt lat="48.04860706" lon="0.40232942"><ele>77.523438</ele><time>2007-08-02T17:16:23Z</time></trkpt>
<trkpt lat="48.04859625" lon="0.40225206"><ele>77.523438</ele><time>2007-08-02T17:16:25Z</time></trkpt>
<trkpt lat="48.04858644" lon="0.40206288"><ele>73.678223</ele><time>2007-08-02T17:16:31Z</time></trkpt>
<trkpt lat="48.04858737" lon="0.40202600"><ele>73.197632</ele><time>2007-08-02T17:16:32Z</time></trkpt>
<trkpt lat="48.04858745" lon="0.40198292"><ele>72.236206</ele><time>2007-08-02T17:16:33Z</time></trkpt>
<trkpt lat="48.04850849" lon="0.40185627"><ele>68.871582</ele><time>2007-08-02T17:16:37Z</time></trkpt>
<trkpt lat="48.04840607" lon="0.40171118"><ele>65.987671</ele><time>2007-08-02T17:16:41Z</time></trkpt>
<trkpt lat="48.04829073" lon="0.40155267"><ele>62.622925</ele><time>2007-08-02T17:16:45Z</time></trkpt>
<trkpt lat="48.04827858" lon="0.40152568"><ele>62.622925</ele><time>2007-08-02T17:16:46Z</time></trkpt>
<trkpt lat="48.04826039" lon="0.40148109"><ele>61.661743</ele><time>2007-08-02T17:16:50Z</time></trkpt>
<trkpt lat="48.04822518" lon="0.40144245"><ele>61.661743</ele><time>2007-08-02T17:16:52Z</time></trkpt>
<trkpt lat="48.04800726" lon="0.40112092"><ele>60.700317</ele><time>2007-08-02T17:16:59Z</time></trkpt>
<trkpt lat="48.04795202" lon="0.40099838"><ele>60.700317</ele><time>2007-08-02T17:17:01Z</time></trkpt>
<trkpt lat="48.04789100" lon="0.40077156"><ele>60.219727</ele><time>2007-08-02T17:17:04Z</time></trkpt>
<trkpt lat="48.04772034" lon="0.40050762"><ele>59.739136</ele><time>2007-08-02T17:17:08Z</time></trkpt>
<trkpt lat="48.04766636" lon="0.40046529"><ele>60.219727</ele><time>2007-08-02T17:17:09Z</time></trkpt>
<trkpt lat="48.04755170" lon="0.40038306"><ele>59.739136</ele><time>2007-08-02T17:17:11Z</time></trkpt>
<trkpt lat="48.04739538" lon="0.40021040"><ele>59.258423</ele><time>2007-08-02T17:17:14Z</time></trkpt>
<trkpt lat="48.04732832" lon="0.40004829"><ele>59.258423</ele><time>2007-08-02T17:17:16Z</time></trkpt>
<trkpt lat="48.04727652" lon="0.39987328"><ele>59.739136</ele><time>2007-08-02T17:17:18Z</time></trkpt>
<trkpt lat="48.04725054" lon="0.39978594"><ele>59.258423</ele><time>2007-08-02T17:17:19Z</time></trkpt>
<trkpt lat="48.04701542" lon="0.39920960"><ele>59.258423</ele><time>2007-08-02T17:17:26Z</time></trkpt>
<trkpt lat="48.04676564" lon="0.39868724"><ele>58.77771</ele><time>2007-08-02T17:17:33Z</time></trkpt>
<trkpt lat="48.04667973" lon="0.39814007"><ele>58.77771</ele><time>2007-08-02T17:17:39Z</time></trkpt>
<trkpt lat="48.04667948" lon="0.39755166"><ele>59.739136</ele><time>2007-08-02T17:17:45Z</time></trkpt>
<trkpt lat="48.04674603" lon="0.39707305"><ele>59.258423</ele><time>2007-08-02T17:17:50Z</time></trkpt>
<trkpt lat="48.04676455" lon="0.39697884"><ele>59.258423</ele><time>2007-08-02T17:17:51Z</time></trkpt>
<trkpt lat="48.04689204" lon="0.39676107"><ele>59.739136</ele><time>2007-08-02T17:17:54Z</time></trkpt>
<trkpt lat="48.04701492" lon="0.39669058"><ele>59.739136</ele><time>2007-08-02T17:17:56Z</time></trkpt>
<trkpt lat="48.04714208" lon="0.39664297"><ele>59.739136</ele><time>2007-08-02T17:17:58Z</time></trkpt>
<trkpt lat="48.04733167" lon="0.39657936"><ele>60.219727</ele><time>2007-08-02T17:18:01Z</time></trkpt>
<trkpt lat="48.04752546" lon="0.39638196"><ele>60.219727</ele><time>2007-08-02T17:18:05Z</time></trkpt>
<trkpt lat="48.04755866" lon="0.39625389"><ele>59.739136</ele><time>2007-08-02T17:18:07Z</time></trkpt>
<trkpt lat="48.04755329" lon="0.39619664"><ele>59.739136</ele><time>2007-08-02T17:18:08Z</time></trkpt>
<trkpt lat="48.04750434" lon="0.39611215"><ele>60.219727</ele><time>2007-08-02T17:18:10Z</time></trkpt>
<trkpt lat="48.04718298" lon="0.39584384"><ele>60.219727</ele><time>2007-08-02T17:18:17Z</time></trkpt>
<trkpt lat="48.04708994" lon="0.39575793"><ele>59.258423</ele><time>2007-08-02T17:18:19Z</time></trkpt>
<trkpt lat="48.04682474" lon="0.39536163"><ele>60.219727</ele><time>2007-08-02T17:18:26Z</time></trkpt>
<trkpt lat="48.04678844" lon="0.39530304"><ele>60.219727</ele><time>2007-08-02T17:18:27Z</time></trkpt>
<trkpt lat="48.04657655" lon="0.39480943"><ele>60.700317</ele><time>2007-08-02T17:18:34Z</time></trkpt>
<trkpt lat="48.04638410" lon="0.39406948"><ele>61.661743</ele><time>2007-08-02T17:18:44Z</time></trkpt>
<trkpt lat="48.04630204" lon="0.39364628"><ele>63.584351</ele><time>2007-08-02T17:18:50Z</time></trkpt>
<trkpt lat="48.04622870" lon="0.39335945"><ele>63.584351</ele><time>2007-08-02T17:18:55Z</time></trkpt>
<trkpt lat="48.04608696" lon="0.39285989"><ele>62.142334</ele><time>2007-08-02T17:19:02Z</time></trkpt>
<trkpt lat="48.04594145" lon="0.39228782"><ele>62.142334</ele><time>2007-08-02T17:19:09Z</time></trkpt>
<trkpt lat="48.04581036" lon="0.39168147"><ele>62.142334</ele><time>2007-08-02T17:19:16Z</time></trkpt>
<trkpt lat="48.04577650" lon="0.39150805"><ele>62.142334</ele><time>2007-08-02T17:19:18Z</time></trkpt>
<trkpt lat="48.04576032" lon="0.39142323"><ele>62.142334</ele><time>2007-08-02T17:19:19Z</time></trkpt>
<trkpt lat="48.04574599" lon="0.39133983"><ele>62.142334</ele><time>2007-08-02T17:19:20Z</time></trkpt>
<trkpt lat="48.04579359" lon="0.39105467"><ele>62.622925</ele><time>2007-08-02T17:19:24Z</time></trkpt>
<trkpt lat="48.04587968" lon="0.39079257"><ele>64.545654</ele><time>2007-08-02T17:19:28Z</time></trkpt>
<trkpt lat="48.04593659" lon="0.39042679"><ele>66.948975</ele><time>2007-08-02T17:19:33Z</time></trkpt>
<trkpt lat="48.04606827" lon="0.39009210"><ele>68.871582</ele><time>2007-08-02T17:19:38Z</time></trkpt>
<trkpt lat="48.04610490" lon="0.39003468"><ele>68.871582</ele><time>2007-08-02T17:19:39Z</time></trkpt>
<trkpt lat="48.04648602" lon="0.38965515"><ele>71.755493</ele><time>2007-08-02T17:19:48Z</time></trkpt>
<trkpt lat="48.04677763" lon="0.38940285"><ele>74.639526</ele><time>2007-08-02T17:19:56Z</time></trkpt>
<trkpt lat="48.04681065" lon="0.38936958"><ele>74.639526</ele><time>2007-08-02T17:19:57Z</time></trkpt>
<trkpt lat="48.04701408" lon="0.38909323"><ele>77.042847</ele><time>2007-08-02T17:20:04Z</time></trkpt>
<trkpt lat="48.04721324" lon="0.38884479"><ele>78.965454</ele><time>2007-08-02T17:20:11Z</time></trkpt>
<trkpt lat="48.04730234" lon="0.38875083"><ele>79.926636</ele><time>2007-08-02T17:20:14Z</time></trkpt>
<trkpt lat="48.04738834" lon="0.38866416"><ele>81.368774</ele><time>2007-08-02T17:20:17Z</time></trkpt>
<trkpt lat="48.04771397" lon="0.38837506"><ele>83.771973</ele><time>2007-08-02T17:20:28Z</time></trkpt>
<trkpt lat="48.04780249" lon="0.38829535"><ele>85.213989</ele><time>2007-08-02T17:20:31Z</time></trkpt>
<trkpt lat="48.04800524" lon="0.38810190"><ele>87.136597</ele><time>2007-08-02T17:20:38Z</time></trkpt>
<trkpt lat="48.04831018" lon="0.38777685"><ele>90.02063</ele><time>2007-08-02T17:20:48Z</time></trkpt>
<trkpt lat="48.04846918" lon="0.38761223"><ele>90.981934</ele><time>2007-08-02T17:20:54Z</time></trkpt>
<trkpt lat="48.04845770" lon="0.38738315"><ele>92.42395</ele><time>2007-08-02T17:20:59Z</time></trkpt>
<trkpt lat="48.04823935" lon="0.38683590"><ele>92.904541</ele><time>2007-08-02T17:21:11Z</time></trkpt>
<trkpt lat="48.04816869" lon="0.38664680"><ele>93.385132</ele><time>2007-08-02T17:21:15Z</time></trkpt>
<trkpt lat="48.04804472" lon="0.38633768"><ele>93.385132</ele><time>2007-08-02T17:21:22Z</time></trkpt>
<trkpt lat="48.04789980" lon="0.38590693"><ele>92.42395</ele><time>2007-08-02T17:21:31Z</time></trkpt>
<trkpt lat="48.04782989" lon="0.38563376"><ele>92.42395</ele><time>2007-08-02T17:21:36Z</time></trkpt>
<trkpt lat="48.04767508" lon="0.38519044"><ele>92.42395</ele><time>2007-08-02T17:21:44Z</time></trkpt>
<trkpt lat="48.04753133" lon="0.38478962"><ele>92.904541</ele><time>2007-08-02T17:21:51Z</time></trkpt>
<trkpt lat="48.04748733" lon="0.38466750"><ele>92.42395</ele><time>2007-08-02T17:21:53Z</time></trkpt>
<trkpt lat="48.04726479" lon="0.38404363"><ele>92.42395</ele><time>2007-08-02T17:22:03Z</time></trkpt>
<trkpt lat="48.04710595" lon="0.38359780"><ele>91.943237</ele><time>2007-08-02T17:22:10Z</time></trkpt>
<trkpt lat="48.04706027" lon="0.38345707"><ele>90.501343</ele><time>2007-08-02T17:22:12Z</time></trkpt>
<trkpt lat="48.04703822" lon="0.38338440"><ele>90.501343</ele><time>2007-08-02T17:22:13Z</time></trkpt>
<trkpt lat="48.04693655" lon="0.38309648"><ele>89.539917</ele><time>2007-08-02T17:22:17Z</time></trkpt>
<trkpt lat="48.04682725" lon="0.38283295"><ele>89.539917</ele><time>2007-08-02T17:22:21Z</time></trkpt>
<trkpt lat="48.04662768" lon="0.38226298"><ele>89.059326</ele><time>2007-08-02T17:22:30Z</time></trkpt>
<trkpt lat="48.04655987" lon="0.38208176"><ele>89.539917</ele><time>2007-08-02T17:22:33Z</time></trkpt>
<trkpt lat="48.04645979" lon="0.38189678"><ele>89.539917</ele><time>2007-08-02T17:22:37Z</time></trkpt>
<trkpt lat="48.04645694" lon="0.38181027"><ele>88.578735</ele><time>2007-08-02T17:22:39Z</time></trkpt>
<trkpt lat="48.04650807" lon="0.38172604"><ele>89.059326</ele><time>2007-08-02T17:22:41Z</time></trkpt>
<trkpt lat="48.04654067" lon="0.38167926"><ele>88.578735</ele><time>2007-08-02T17:22:42Z</time></trkpt>
<trkpt lat="48.04682222" lon="0.38127509"><ele>86.175293</ele><time>2007-08-02T17:22:49Z</time></trkpt>
<trkpt lat="48.04694887" lon="0.38108457"><ele>84.733398</ele><time>2007-08-02T17:22:52Z</time></trkpt>
<trkpt lat="48.04706605" lon="0.38087930"><ele>83.771973</ele><time>2007-08-02T17:22:55Z</time></trkpt>
<trkpt lat="48.04722464" lon="0.38060378"><ele>82.330078</ele><time>2007-08-02T17:22:59Z</time></trkpt>
<trkpt lat="48.04730938" lon="0.38047085"><ele>81.849365</ele><time>2007-08-02T17:23:01Z</time></trkpt>
<trkpt lat="48.04735263" lon="0.38040589"><ele>81.849365</ele><time>2007-08-02T17:23:02Z</time></trkpt>
<trkpt lat="48.04744039" lon="0.38028192"><ele>80.407471</ele><time>2007-08-02T17:23:04Z</time></trkpt>
<trkpt lat="48.04774390" lon="0.37983575"><ele>78.965454</ele><time>2007-08-02T17:23:11Z</time></trkpt>
<trkpt lat="48.04803433" lon="0.37935547"><ele>77.042847</ele><time>2007-08-02T17:23:18Z</time></trkpt>
<trkpt lat="48.04821295" lon="0.37895766"><ele>76.562134</ele><time>2007-08-02T17:23:23Z</time></trkpt>
<trkpt lat="48.04831278" lon="0.37869832"><ele>75.60083</ele><time>2007-08-02T17:23:26Z</time></trkpt>
<trkpt lat="48.04838536" lon="0.37853429"><ele>76.562134</ele><time>2007-08-02T17:23:28Z</time></trkpt>
<trkpt lat="48.04842057" lon="0.37845450"><ele>76.081421</ele><time>2007-08-02T17:23:29Z</time></trkpt>
<trkpt lat="48.04845887" lon="0.37837336"><ele>76.081421</ele><time>2007-08-02T17:23:30Z</time></trkpt>
<trkpt lat="48.04853733" lon="0.37821963"><ele>76.081421</ele><time>2007-08-02T17:23:32Z</time></trkpt>
<trkpt lat="48.04868669" lon="0.37793239"><ele>76.081421</ele><time>2007-08-02T17:23:36Z</time></trkpt>
<trkpt lat="48.04884888" lon="0.37755696"><ele>77.042847</ele><time>2007-08-02T17:23:41Z</time></trkpt>
<trkpt lat="48.04896262" lon="0.37731372"><ele>77.523438</ele><time>2007-08-02T17:23:45Z</time></trkpt>
<trkpt lat="48.04898618" lon="0.37726225"><ele>77.523438</ele><time>2007-08-02T17:23:46Z</time></trkpt>
<trkpt lat="48.04915264" lon="0.37689010"><ele>78.484741</ele><time>2007-08-02T17:23:52Z</time></trkpt>
<trkpt lat="48.04935096" lon="0.37629624"><ele>78.484741</ele><time>2007-08-02T17:24:00Z</time></trkpt>
<trkpt lat="48.04950493" lon="0.37572468"><ele>78.004028</ele><time>2007-08-02T17:24:07Z</time></trkpt>
<trkpt lat="48.04971926" lon="0.37491884"><ele>78.004028</ele><time>2007-08-02T17:24:16Z</time></trkpt>
<trkpt lat="48.04985806" lon="0.37437259"><ele>76.562134</ele><time>2007-08-02T17:24:22Z</time></trkpt>
<trkpt lat="48.05003408" lon="0.37373674"><ele>76.081421</ele><time>2007-08-02T17:24:29Z</time></trkpt>
<trkpt lat="48.05018756" lon="0.37331245"><ele>75.120239</ele><time>2007-08-02T17:24:34Z</time></trkpt>
<trkpt lat="48.05031035" lon="0.37297374"><ele>74.639526</ele><time>2007-08-02T17:24:38Z</time></trkpt>
<trkpt lat="48.05042208" lon="0.37274575"><ele>73.678223</ele><time>2007-08-02T17:24:42Z</time></trkpt>
<trkpt lat="48.05060590" lon="0.37250678"><ele>74.158813</ele><time>2007-08-02T17:24:48Z</time></trkpt>
<trkpt lat="48.05079935" lon="0.37218609"><ele>74.158813</ele><time>2007-08-02T17:24:53Z</time></trkpt>
<trkpt lat="48.05087328" lon="0.37205139"><ele>73.678223</ele><time>2007-08-02T17:24:55Z</time></trkpt>
<trkpt lat="48.05099440" lon="0.37183464"><ele>74.158813</ele><time>2007-08-02T17:24:59Z</time></trkpt>
<trkpt lat="48.05106028" lon="0.37172332"><ele>73.678223</ele><time>2007-08-02T17:25:01Z</time></trkpt>
<trkpt lat="48.05117017" lon="0.37156558"><ele>74.158813</ele><time>2007-08-02T17:25:04Z</time></trkpt>
<trkpt lat="48.05144333" lon="0.37127489"><ele>73.678223</ele><time>2007-08-02T17:25:10Z</time></trkpt>
<trkpt lat="48.05162396" lon="0.37111572"><ele>73.678223</ele><time>2007-08-02T17:25:14Z</time></trkpt>
<trkpt lat="48.05179663" lon="0.37101388"><ele>72.236206</ele><time>2007-08-02T17:25:17Z</time></trkpt>
<trkpt lat="48.05199218" lon="0.37091330"><ele>72.716919</ele><time>2007-08-02T17:25:21Z</time></trkpt>
<trkpt lat="48.05216778" lon="0.37084725"><ele>72.716919</ele><time>2007-08-02T17:25:25Z</time></trkpt>
<trkpt lat="48.05225948" lon="0.37080827"><ele>72.716919</ele><time>2007-08-02T17:25:27Z</time></trkpt>
<trkpt lat="48.05252837" lon="0.37078958"><ele>72.716919</ele><time>2007-08-02T17:25:32Z</time></trkpt>
<trkpt lat="48.05274513" lon="0.37071532"><ele>72.236206</ele><time>2007-08-02T17:25:37Z</time></trkpt>
<trkpt lat="48.05288360" lon="0.37069604"><ele>72.236206</ele><time>2007-08-02T17:25:41Z</time></trkpt>
<trkpt lat="48.05308669" lon="0.37069746"><ele>72.716919</ele><time>2007-08-02T17:25:46Z</time></trkpt>
<trkpt lat="48.05317973" lon="0.37069755"><ele>72.236206</ele><time>2007-08-02T17:25:48Z</time></trkpt>
<trkpt lat="48.05343764" lon="0.37074348"><ele>73.197632</ele><time>2007-08-02T17:25:53Z</time></trkpt>
<trkpt lat="48.05353613" lon="0.37077189"><ele>73.197632</ele><time>2007-08-02T17:25:55Z</time></trkpt>
<trkpt lat="48.05367745" lon="0.37078916"><ele>73.197632</ele><time>2007-08-02T17:25:58Z</time></trkpt>
<trkpt lat="48.05393234" lon="0.37074482"><ele>72.716919</ele><time>2007-08-02T17:26:03Z</time></trkpt>
<trkpt lat="48.05410123" lon="0.37070928"><ele>73.197632</ele><time>2007-08-02T17:26:06Z</time></trkpt>
<trkpt lat="48.05426032" lon="0.37065748"><ele>72.716919</ele><time>2007-08-02T17:26:09Z</time></trkpt>
<trkpt lat="48.05441740" lon="0.37062186"><ele>71.755493</ele><time>2007-08-02T17:26:12Z</time></trkpt>
<trkpt lat="48.05477380" lon="0.37039530"><ele>70.313477</ele><time>2007-08-02T17:26:18Z</time></trkpt>
<trkpt lat="48.05490556" lon="0.37031382"><ele>69.832886</ele><time>2007-08-02T17:26:20Z</time></trkpt>
<trkpt lat="48.05518258" lon="0.37015884"><ele>66.948975</ele><time>2007-08-02T17:26:24Z</time></trkpt>
<trkpt lat="48.05531720" lon="0.37004979"><ele>66.468262</ele><time>2007-08-02T17:26:28Z</time></trkpt>
<trkpt lat="48.05532239" lon="0.36991996"><ele>65.987671</ele><time>2007-08-02T17:26:31Z</time></trkpt>
<trkpt lat="48.05518988" lon="0.36939022"><ele>65.987671</ele><time>2007-08-02T17:26:39Z</time></trkpt>
<trkpt lat="48.05509374" lon="0.36906165"><ele>65.50708</ele><time>2007-08-02T17:26:43Z</time></trkpt>
<trkpt lat="48.05490087" lon="0.36847123"><ele>64.545654</ele><time>2007-08-02T17:26:50Z</time></trkpt>
<trkpt lat="48.05467749" lon="0.36783840"><ele>63.584351</ele><time>2007-08-02T17:26:57Z</time></trkpt>
<trkpt lat="48.05449937" lon="0.36723557"><ele>63.584351</ele><time>2007-08-02T17:27:04Z</time></trkpt>
<trkpt lat="48.05425663" lon="0.36640945"><ele>62.622925</ele><time>2007-08-02T17:27:13Z</time></trkpt>
<trkpt lat="48.05403904" lon="0.36575248"><ele>63.103638</ele><time>2007-08-02T17:27:20Z</time></trkpt>
<trkpt lat="48.05387928" lon="0.36530086"><ele>62.622925</ele><time>2007-08-02T17:27:25Z</time></trkpt>
<trkpt lat="48.05362799" lon="0.36468596"><ele>62.622925</ele><time>2007-08-02T17:27:32Z</time></trkpt>
<trkpt lat="48.05336740" lon="0.36424910"><ele>62.622925</ele><time>2007-08-02T17:27:38Z</time></trkpt>
<trkpt lat="48.05296817" lon="0.36363806"><ele>63.103638</ele><time>2007-08-02T17:27:47Z</time></trkpt>
<trkpt lat="48.05288963" lon="0.36348953"><ele>63.584351</ele><time>2007-08-02T17:27:49Z</time></trkpt>
<trkpt lat="48.05263407" lon="0.36295183"><ele>64.065063</ele><time>2007-08-02T17:27:56Z</time></trkpt>
<trkpt lat="48.05235486" lon="0.36233786"><ele>64.065063</ele><time>2007-08-02T17:28:04Z</time></trkpt>
<trkpt lat="48.05204725" lon="0.36167434"><ele>65.026367</ele><time>2007-08-02T17:28:13Z</time></trkpt>
<trkpt lat="48.05183644" lon="0.36115970"><ele>65.026367</ele><time>2007-08-02T17:28:20Z</time></trkpt>
<trkpt lat="48.05157275" lon="0.36050054"><ele>65.987671</ele><time>2007-08-02T17:28:29Z</time></trkpt>
<trkpt lat="48.05138198" lon="0.36008673"><ele>66.468262</ele><time>2007-08-02T17:28:35Z</time></trkpt>
<trkpt lat="48.05097914" lon="0.35936840"><ele>66.948975</ele><time>2007-08-02T17:28:46Z</time></trkpt>
<trkpt lat="48.05071143" lon="0.35901829"><ele>67.429688</ele><time>2007-08-02T17:28:53Z</time></trkpt>
<trkpt lat="48.05053482" lon="0.35896766"><ele>67.429688</ele><time>2007-08-02T17:28:57Z</time></trkpt>
<trkpt lat="48.05011757" lon="0.35899867"><ele>68.871582</ele><time>2007-08-02T17:29:06Z</time></trkpt>
<trkpt lat="48.05008270" lon="0.35899054"><ele>68.871582</ele><time>2007-08-02T17:29:07Z</time></trkpt>
<trkpt lat="48.05007407" lon="0.35903857"><ele>68.871582</ele><time>2007-08-02T17:29:10Z</time></trkpt>
<trkpt lat="48.05016694" lon="0.35917872"><ele>68.871582</ele><time>2007-08-02T17:29:14Z</time></trkpt>
<trkpt lat="48.05017238" lon="0.35930168"><ele>69.352295</ele><time>2007-08-02T17:29:16Z</time></trkpt>
<trkpt lat="48.05018823" lon="0.35984315"><ele>71.274902</ele><time>2007-08-02T17:29:24Z</time></trkpt>
<trkpt lat="48.05024967" lon="0.36035964"><ele>72.716919</ele><time>2007-08-02T17:29:32Z</time></trkpt>
<trkpt lat="48.05028588" lon="0.36079617"><ele>74.639526</ele><time>2007-08-02T17:29:40Z</time></trkpt>
<trkpt lat="48.05030582" lon="0.36122155"><ele>76.081421</ele><time>2007-08-02T17:29:48Z</time></trkpt>
<trkpt lat="48.05034715" lon="0.36153185"><ele>77.523438</ele><time>2007-08-02T17:29:54Z</time></trkpt>
<trkpt lat="48.05040012" lon="0.36179907"><ele>79.446045</ele><time>2007-08-02T17:29:59Z</time></trkpt>
<trkpt lat="48.05053423" lon="0.36235487"><ele>82.810791</ele><time>2007-08-02T17:30:09Z</time></trkpt>
<trkpt lat="48.05066675" lon="0.36282560"><ele>84.252686</ele><time>2007-08-02T17:30:18Z</time></trkpt>
<trkpt lat="48.05077052" lon="0.36323824"><ele>85.213989</ele><time>2007-08-02T17:30:26Z</time></trkpt>
<trkpt lat="48.05081570" lon="0.36347318"><ele>85.69458</ele><time>2007-08-02T17:30:30Z</time></trkpt>
<trkpt lat="48.05083782" lon="0.36382405"><ele>86.175293</ele><time>2007-08-02T17:30:35Z</time></trkpt>
<trkpt lat="48.05078376" lon="0.36441037"><ele>86.175293</ele><time>2007-08-02T17:30:43Z</time></trkpt>
<trkpt lat="48.05067262" lon="0.36500238"><ele>84.733398</ele><time>2007-08-02T17:30:50Z</time></trkpt>
<trkpt lat="48.05047405" lon="0.36566748"><ele>83.291382</ele><time>2007-08-02T17:30:57Z</time></trkpt>
<trkpt lat="48.05043784" lon="0.36576463"><ele>83.291382</ele><time>2007-08-02T17:30:58Z</time></trkpt>
<trkpt lat="48.05022494" lon="0.36636687"><ele>81.368774</ele><time>2007-08-02T17:31:04Z</time></trkpt>
<trkpt lat="48.05019326" lon="0.36647156"><ele>81.368774</ele><time>2007-08-02T17:31:05Z</time></trkpt>
<trkpt lat="48.05003576" lon="0.36699920"><ele>79.926636</ele><time>2007-08-02T17:31:10Z</time></trkpt>
<trkpt lat="48.04976804" lon="0.36784393"><ele>78.004028</ele><time>2007-08-02T17:31:18Z</time></trkpt>
<trkpt lat="48.04959688" lon="0.36866385"><ele>77.042847</ele><time>2007-08-02T17:31:25Z</time></trkpt>
<trkpt lat="48.04958750" lon="0.36912049"><ele>76.081421</ele><time>2007-08-02T17:31:29Z</time></trkpt>
<trkpt lat="48.04962605" lon="0.36961176"><ele>75.120239</ele><time>2007-08-02T17:31:34Z</time></trkpt>
<trkpt lat="48.04965070" lon="0.36977378"><ele>74.639526</ele><time>2007-08-02T17:31:36Z</time></trkpt>
<trkpt lat="48.04979352" lon="0.37030033"><ele>74.158813</ele><time>2007-08-02T17:31:42Z</time></trkpt>
<trkpt lat="48.04992956" lon="0.37083820"><ele>72.236206</ele><time>2007-08-02T17:31:48Z</time></trkpt>
<trkpt lat="48.04987357" lon="0.37102293"><ele>72.236206</ele><time>2007-08-02T17:31:51Z</time></trkpt>
<trkpt lat="48.04983007" lon="0.37104020"><ele>72.236206</ele><time>2007-08-02T17:31:52Z</time></trkpt>
<trkpt lat="48.04939647" lon="0.37124187"><ele>72.236206</ele><time>2007-08-02T17:31:59Z</time></trkpt>
<trkpt lat="48.04908743" lon="0.37141839"><ele>71.755493</ele><time>2007-08-02T17:32:04Z</time></trkpt>
<trkpt lat="48.04878686" lon="0.37157178"><ele>71.755493</ele><time>2007-08-02T17:32:09Z</time></trkpt>
<trkpt lat="48.04867513" lon="0.37174436"><ele>71.274902</ele><time>2007-08-02T17:32:13Z</time></trkpt>
<trkpt lat="48.04866884" lon="0.37189197"><ele>70.794189</ele><time>2007-08-02T17:32:15Z</time></trkpt>
<trkpt lat="48.04868066" lon="0.37234300"><ele>72.236206</ele><time>2007-08-02T17:32:20Z</time></trkpt>
<trkpt lat="48.04869616" lon="0.37276452"><ele>72.236206</ele><time>2007-08-02T17:32:24Z</time></trkpt>
<trkpt lat="48.04871955" lon="0.37311246"><ele>73.197632</ele><time>2007-08-02T17:32:27Z</time></trkpt>
<trkpt lat="48.04874268" lon="0.37361453"><ele>73.678223</ele><time>2007-08-02T17:32:31Z</time></trkpt>
<trkpt lat="48.04876490" lon="0.37386733"><ele>74.158813</ele><time>2007-08-02T17:32:33Z</time></trkpt>
<trkpt lat="48.04878937" lon="0.37432649"><ele>75.120239</ele><time>2007-08-02T17:32:37Z</time></trkpt>
<trkpt lat="48.04881074" lon="0.37462254"><ele>75.60083</ele><time>2007-08-02T17:32:40Z</time></trkpt>
<trkpt lat="48.04881829" lon="0.37471047"><ele>75.60083</ele><time>2007-08-02T17:32:41Z</time></trkpt>
<trkpt lat="48.04876749" lon="0.37488925"><ele>75.60083</ele><time>2007-08-02T17:32:45Z</time></trkpt>
<trkpt lat="48.04867689" lon="0.37477945"><ele>75.120239</ele><time>2007-08-02T17:32:48Z</time></trkpt>
<trkpt lat="48.04867202" lon="0.37465045"><ele>75.120239</ele><time>2007-08-02T17:32:50Z</time></trkpt>
<trkpt lat="48.04865208" lon="0.37428768"><ele>72.716919</ele><time>2007-08-02T17:32:55Z</time></trkpt>
<trkpt lat="48.04851637" lon="0.37416757"><ele>72.716919</ele><time>2007-08-02T17:32:59Z</time></trkpt>
<trkpt lat="48.04845753" lon="0.37418442"><ele>73.197632</ele><time>2007-08-02T17:33:00Z</time></trkpt>
<trkpt lat="48.04809309" lon="0.37436287"><ele>71.755493</ele><time>2007-08-02T17:33:07Z</time></trkpt>
<trkpt lat="48.04788798" lon="0.37449447"><ele>71.755493</ele><time>2007-08-02T17:33:11Z</time></trkpt>
<trkpt lat="48.04762823" lon="0.37466018"><ele>71.755493</ele><time>2007-08-02T17:33:17Z</time></trkpt>
<trkpt lat="48.04759813" lon="0.37467769"><ele>72.236206</ele><time>2007-08-02T17:33:18Z</time></trkpt>
<trkpt lat="48.04743779" lon="0.37479739"><ele>72.716919</ele><time>2007-08-02T17:33:23Z</time></trkpt>
<trkpt lat="48.04727099" lon="0.37493099"><ele>73.678223</ele><time>2007-08-02T17:33:28Z</time></trkpt>
<trkpt lat="48.04705457" lon="0.37510894"><ele>74.639526</ele><time>2007-08-02T17:33:34Z</time></trkpt>
<trkpt lat="48.04685516" lon="0.37530818"><ele>76.081421</ele><time>2007-08-02T17:33:40Z</time></trkpt>
<trkpt lat="48.04669674" lon="0.37525177"><ele>76.081421</ele><time>2007-08-02T17:33:44Z</time></trkpt>
<trkpt lat="48.04655492" lon="0.37510366"><ele>76.081421</ele><time>2007-08-02T17:33:48Z</time></trkpt>
<trkpt lat="48.04641335" lon="0.37492932"><ele>74.639526</ele><time>2007-08-02T17:33:52Z</time></trkpt>
<trkpt lat="48.04621663" lon="0.37469379"><ele>74.639526</ele><time>2007-08-02T17:33:57Z</time></trkpt>
<trkpt lat="48.04597607" lon="0.37438072"><ele>73.197632</ele><time>2007-08-02T17:34:03Z</time></trkpt>
<trkpt lat="48.04576174" lon="0.37407319"><ele>72.716919</ele><time>2007-08-02T17:34:09Z</time></trkpt>
<trkpt lat="48.04572243" lon="0.37402399"><ele>73.678223</ele><time>2007-08-02T17:34:10Z</time></trkpt>
<trkpt lat="48.04556636" lon="0.37383246"><ele>73.197632</ele><time>2007-08-02T17:34:14Z</time></trkpt>
<trkpt lat="48.04549637" lon="0.37373045"><ele>73.197632</ele><time>2007-08-02T17:34:16Z</time></trkpt>
<trkpt lat="48.04542747" lon="0.37363834"><ele>73.197632</ele><time>2007-08-02T17:34:18Z</time></trkpt>
<trkpt lat="48.04524173" lon="0.37328135"><ele>73.197632</ele><time>2007-08-02T17:34:24Z</time></trkpt>
<trkpt lat="48.04514266" lon="0.37311665"><ele>72.716919</ele><time>2007-08-02T17:34:27Z</time></trkpt>
<trkpt lat="48.04501642" lon="0.37294264"><ele>72.236206</ele><time>2007-08-02T17:34:30Z</time></trkpt>
<trkpt lat="48.04491534" lon="0.37276134"><ele>72.236206</ele><time>2007-08-02T17:34:33Z</time></trkpt>
<trkpt lat="48.04480143" lon="0.37246152"><ele>72.236206</ele><time>2007-08-02T17:34:38Z</time></trkpt>
<trkpt lat="48.04470965" lon="0.37223797"><ele>72.236206</ele><time>2007-08-02T17:34:42Z</time></trkpt>
<trkpt lat="48.04454737" lon="0.37228592"><ele>72.716919</ele><time>2007-08-02T17:34:47Z</time></trkpt>
<trkpt lat="48.04406223" lon="0.37251290"><ele>73.197632</ele><time>2007-08-02T17:34:56Z</time></trkpt>
<trkpt lat="48.04395452" lon="0.37254215"><ele>73.197632</ele><time>2007-08-02T17:34:58Z</time></trkpt>
<trkpt lat="48.04370943" lon="0.37267802"><ele>72.716919</ele><time>2007-08-02T17:35:03Z</time></trkpt>
<trkpt lat="48.04335035" lon="0.37285178"><ele>72.236206</ele><time>2007-08-02T17:35:10Z</time></trkpt>
<trkpt lat="48.04310518" lon="0.37296829"><ele>72.716919</ele><time>2007-08-02T17:35:15Z</time></trkpt>
<trkpt lat="48.04295716" lon="0.37302889"><ele>72.716919</ele><time>2007-08-02T17:35:18Z</time></trkpt>
<trkpt lat="48.04280846" lon="0.37307424"><ele>72.236206</ele><time>2007-08-02T17:35:22Z</time></trkpt>
<trkpt lat="48.04278533" lon="0.37292110"><ele>72.236206</ele><time>2007-08-02T17:35:25Z</time></trkpt>
<trkpt lat="48.04280536" lon="0.37235792"><ele>71.755493</ele><time>2007-08-02T17:35:32Z</time></trkpt>
<trkpt lat="48.04276974" lon="0.37166373"><ele>70.313477</ele><time>2007-08-02T17:35:40Z</time></trkpt>
<trkpt lat="48.04269397" lon="0.37072864"><ele>69.832886</ele><time>2007-08-02T17:35:50Z</time></trkpt>
<trkpt lat="48.04265055" lon="0.36995709"><ele>69.832886</ele><time>2007-08-02T17:35:58Z</time></trkpt>
<trkpt lat="48.04256765" lon="0.36908302"><ele>70.313477</ele><time>2007-08-02T17:36:07Z</time></trkpt>
<trkpt lat="48.04240320" lon="0.36817292"><ele>71.274902</ele><time>2007-08-02T17:36:17Z</time></trkpt>
<trkpt lat="48.04222274" lon="0.36748803"><ele>72.716919</ele><time>2007-08-02T17:36:25Z</time></trkpt>
<trkpt lat="48.04214336" lon="0.36696534"><ele>73.197632</ele><time>2007-08-02T17:36:31Z</time></trkpt>
<trkpt lat="48.04207195" lon="0.36634038"><ele>73.678223</ele><time>2007-08-02T17:36:38Z</time></trkpt>
<trkpt lat="48.04200590" lon="0.36534034"><ele>74.639526</ele><time>2007-08-02T17:36:49Z</time></trkpt>
<trkpt lat="48.04195359" lon="0.36479082"><ele>74.158813</ele><time>2007-08-02T17:36:55Z</time></trkpt>
<trkpt lat="48.04186927" lon="0.36438882"><ele>75.60083</ele><time>2007-08-02T17:37:00Z</time></trkpt>
<trkpt lat="48.04174497" lon="0.36390477"><ele>76.081421</ele><time>2007-08-02T17:37:06Z</time></trkpt>
<trkpt lat="48.04164346" lon="0.36360176"><ele>77.523438</ele><time>2007-08-02T17:37:10Z</time></trkpt>
<trkpt lat="48.04160139" lon="0.36326540"><ele>77.042847</ele><time>2007-08-02T17:37:14Z</time></trkpt>
<trkpt lat="48.04158320" lon="0.36318510"><ele>77.042847</ele><time>2007-08-02T17:37:15Z</time></trkpt>
<trkpt lat="48.04148966" lon="0.36287153"><ele>77.523438</ele><time>2007-08-02T17:37:20Z</time></trkpt>
<trkpt lat="48.04140173" lon="0.36246568"><ele>77.523438</ele><time>2007-08-02T17:37:27Z</time></trkpt>
<trkpt lat="48.04133727" lon="0.36218338"><ele>77.523438</ele><time>2007-08-02T17:37:32Z</time></trkpt>
<trkpt lat="48.04127784" lon="0.36200669"><ele>77.042847</ele><time>2007-08-02T17:37:35Z</time></trkpt>
<trkpt lat="48.04115002" lon="0.36147033"><ele>77.042847</ele><time>2007-08-02T17:37:43Z</time></trkpt>
<trkpt lat="48.04111180" lon="0.36135575"><ele>76.562134</ele><time>2007-08-02T17:37:45Z</time></trkpt>
<trkpt lat="48.04105162" lon="0.36109968"><ele>75.60083</ele><time>2007-08-02T17:37:49Z</time></trkpt>
<trkpt lat="48.04096629" lon="0.36082626"><ele>75.60083</ele><time>2007-08-02T17:37:54Z</time></trkpt>
<trkpt lat="48.04092706" lon="0.36056567"><ele>75.60083</ele><time>2007-08-02T17:37:58Z</time></trkpt>
<trkpt lat="48.04084299" lon="0.36020458"><ele>74.639526</ele><time>2007-08-02T17:38:03Z</time></trkpt>
<trkpt lat="48.04077392" lon="0.35988682"><ele>73.678223</ele><time>2007-08-02T17:38:08Z</time></trkpt>
<trkpt lat="48.04072489" lon="0.35969974"><ele>72.716919</ele><time>2007-08-02T17:38:12Z</time></trkpt>
<trkpt lat="48.04066286" lon="0.35948365"><ele>73.197632</ele><time>2007-08-02T17:38:16Z</time></trkpt>
<trkpt lat="48.04063462" lon="0.35939539"><ele>73.197632</ele><time>2007-08-02T17:38:18Z</time></trkpt>
<trkpt lat="48.04055038" lon="0.35897914"><ele>73.197632</ele><time>2007-08-02T17:38:25Z</time></trkpt>
<trkpt lat="48.04045659" lon="0.35862358"><ele>73.678223</ele><time>2007-08-02T17:38:31Z</time></trkpt>
<trkpt lat="48.04039506" lon="0.35832100"><ele>72.716919</ele><time>2007-08-02T17:38:36Z</time></trkpt>
<trkpt lat="48.04032683" lon="0.35805990"><ele>72.716919</ele><time>2007-08-02T17:38:40Z</time></trkpt>
<trkpt lat="48.04027780" lon="0.35780266"><ele>72.716919</ele><time>2007-08-02T17:38:44Z</time></trkpt>
<trkpt lat="48.04015903" lon="0.35745657"><ele>72.236206</ele><time>2007-08-02T17:38:50Z</time></trkpt>
<trkpt lat="48.04009918" lon="0.35727225"><ele>72.236206</ele><time>2007-08-02T17:38:54Z</time></trkpt>
<trkpt lat="48.04001997" lon="0.35695047"><ele>72.716919</ele><time>2007-08-02T17:39:00Z</time></trkpt>
<trkpt lat="48.03994420" lon="0.35656088"><ele>72.716919</ele><time>2007-08-02T17:39:06Z</time></trkpt>
<trkpt lat="48.03986834" lon="0.35625754"><ele>73.197632</ele><time>2007-08-02T17:39:11Z</time></trkpt>
<trkpt lat="48.03979886" lon="0.35589888"><ele>72.716919</ele><time>2007-08-02T17:39:17Z</time></trkpt>
<trkpt lat="48.03969484" lon="0.35560057"><ele>72.716919</ele><time>2007-08-02T17:39:22Z</time></trkpt>
<trkpt lat="48.03966315" lon="0.35541306"><ele>72.716919</ele><time>2007-08-02T17:39:25Z</time></trkpt>
<trkpt lat="48.03961672" lon="0.35519849"><ele>73.197632</ele><time>2007-08-02T17:39:28Z</time></trkpt>
<trkpt lat="48.03960029" lon="0.35490386"><ele>73.678223</ele><time>2007-08-02T17:39:32Z</time></trkpt>
<trkpt lat="48.03958353" lon="0.35474125"><ele>73.197632</ele><time>2007-08-02T17:39:34Z</time></trkpt>
<trkpt lat="48.03953768" lon="0.35436432"><ele>73.197632</ele><time>2007-08-02T17:39:39Z</time></trkpt>
<trkpt lat="48.03951362" lon="0.35413256"><ele>72.716919</ele><time>2007-08-02T17:39:42Z</time></trkpt>
<trkpt lat="48.03945327" lon="0.35356913"><ele>72.716919</ele><time>2007-08-02T17:39:49Z</time></trkpt>
<trkpt lat="48.03942159" lon="0.35332253"><ele>72.236206</ele><time>2007-08-02T17:39:52Z</time></trkpt>
<trkpt lat="48.03939627" lon="0.35292632"><ele>71.274902</ele><time>2007-08-02T17:39:58Z</time></trkpt>
<trkpt lat="48.03950096" lon="0.35285264"><ele>70.794189</ele><time>2007-08-02T17:40:02Z</time></trkpt>
<trkpt lat="48.03953776" lon="0.35287544"><ele>70.313477</ele><time>2007-08-02T17:40:03Z</time></trkpt>
<trkpt lat="48.03993423" lon="0.35311164"><ele>69.832886</ele><time>2007-08-02T17:40:11Z</time></trkpt>
<trkpt lat="48.04028635" lon="0.35333879"><ele>68.871582</ele><time>2007-08-02T17:40:17Z</time></trkpt>
<trkpt lat="48.04040864" lon="0.35343518"><ele>67.910278</ele><time>2007-08-02T17:40:19Z</time></trkpt>
<trkpt lat="48.04068239" lon="0.35371095"><ele>67.429688</ele><time>2007-08-02T17:40:24Z</time></trkpt>
<trkpt lat="48.04092279" lon="0.35394799"><ele>66.948975</ele><time>2007-08-02T17:40:28Z</time></trkpt>
<trkpt lat="48.04107785" lon="0.35412686"><ele>67.429688</ele><time>2007-08-02T17:40:31Z</time></trkpt>
<trkpt lat="48.04155973" lon="0.35451972"><ele>66.948975</ele><time>2007-08-02T17:40:38Z</time></trkpt>
<trkpt lat="48.04162385" lon="0.35457487"><ele>66.468262</ele><time>2007-08-02T17:40:39Z</time></trkpt>
<trkpt lat="48.04205652" lon="0.35512749"><ele>66.468262</ele><time>2007-08-02T17:40:47Z</time></trkpt>
<trkpt lat="48.04241016" lon="0.35575328"><ele>65.987671</ele><time>2007-08-02T17:40:55Z</time></trkpt>
<trkpt lat="48.04266765" lon="0.35632577"><ele>66.468262</ele><time>2007-08-02T17:41:02Z</time></trkpt>
<trkpt lat="48.04287175" lon="0.35675174"><ele>65.987671</ele><time>2007-08-02T17:41:08Z</time></trkpt>
<trkpt lat="48.04306788" lon="0.35710495"><ele>65.026367</ele><time>2007-08-02T17:41:13Z</time></trkpt>
<trkpt lat="48.04310946" lon="0.35717519"><ele>65.026367</ele><time>2007-08-02T17:41:14Z</time></trkpt>
<trkpt lat="48.04336494" lon="0.35757517"><ele>65.50708</ele><time>2007-08-02T17:41:20Z</time></trkpt>
<trkpt lat="48.04364322" lon="0.35796938"><ele>64.065063</ele><time>2007-08-02T17:41:26Z</time></trkpt>
<trkpt lat="48.04374187" lon="0.35808932"><ele>64.065063</ele><time>2007-08-02T17:41:28Z</time></trkpt>
<trkpt lat="48.04396559" lon="0.35829099"><ele>64.065063</ele><time>2007-08-02T17:41:32Z</time></trkpt>
<trkpt lat="48.04404463" lon="0.35851294"><ele>64.545654</ele><time>2007-08-02T17:41:36Z</time></trkpt>
<trkpt lat="48.04393340" lon="0.35871528"><ele>64.065063</ele><time>2007-08-02T17:41:40Z</time></trkpt>
<trkpt lat="48.04390457" lon="0.35878317"><ele>64.065063</ele><time>2007-08-02T17:41:41Z</time></trkpt>
<trkpt lat="48.04372469" lon="0.35940737"><ele>64.545654</ele><time>2007-08-02T17:41:49Z</time></trkpt>
<trkpt lat="48.04355588" lon="0.36002328"><ele>64.545654</ele><time>2007-08-02T17:41:57Z</time></trkpt>
<trkpt lat="48.04337139" lon="0.36073255"><ele>65.026367</ele><time>2007-08-02T17:42:06Z</time></trkpt>
<trkpt lat="48.04319462" lon="0.36153168"><ele>65.987671</ele><time>2007-08-02T17:42:16Z</time></trkpt>
<trkpt lat="48.04312865" lon="0.36208523"><ele>67.429688</ele><time>2007-08-02T17:42:23Z</time></trkpt>
<trkpt lat="48.04296906" lon="0.36246057"><ele>68.390869</ele><time>2007-08-02T17:42:29Z</time></trkpt>
<trkpt lat="48.04284249" lon="0.36256333"><ele>68.390869</ele><time>2007-08-02T17:42:32Z</time></trkpt>
<trkpt lat="48.04241007" lon="0.36269275"><ele>71.755493</ele><time>2007-08-02T17:42:41Z</time></trkpt>
<trkpt lat="48.04232139" lon="0.36271806"><ele>72.236206</ele><time>2007-08-02T17:42:43Z</time></trkpt>
<trkpt lat="48.04201587" lon="0.36281562"><ele>74.158813</ele><time>2007-08-02T17:42:50Z</time></trkpt>
<trkpt lat="48.04188847" lon="0.36287296"><ele>75.120239</ele><time>2007-08-02T17:42:53Z</time></trkpt>
<trkpt lat="48.04168135" lon="0.36311905"><ele>76.081421</ele><time>2007-08-02T17:42:59Z</time></trkpt>
<trkpt lat="48.04163944" lon="0.36323598"><ele>76.081421</ele><time>2007-08-02T17:43:01Z</time></trkpt>
<trkpt lat="48.04161103" lon="0.36359229"><ele>78.004028</ele><time>2007-08-02T17:43:07Z</time></trkpt>
<trkpt lat="48.04165168" lon="0.36376026"><ele>77.523438</ele><time>2007-08-02T17:43:10Z</time></trkpt>
<trkpt lat="48.04178939" lon="0.36418908"><ele>76.081421</ele><time>2007-08-02T17:43:16Z</time></trkpt>
<trkpt lat="48.04188997" lon="0.36465554"><ele>75.60083</ele><time>2007-08-02T17:43:21Z</time></trkpt>
<trkpt lat="48.04195862" lon="0.36504094"><ele>75.120239</ele><time>2007-08-02T17:43:25Z</time></trkpt>
<trkpt lat="48.04198092" lon="0.36534537"><ele>75.120239</ele><time>2007-08-02T17:43:28Z</time></trkpt>
<trkpt lat="48.04201755" lon="0.36604350"><ele>75.120239</ele><time>2007-08-02T17:43:35Z</time></trkpt>
<trkpt lat="48.04208343" lon="0.36670315"><ele>74.158813</ele><time>2007-08-02T17:43:42Z</time></trkpt>
<trkpt lat="48.04214914" lon="0.36717933"><ele>73.197632</ele><time>2007-08-02T17:43:47Z</time></trkpt>
<trkpt lat="48.04229708" lon="0.36785675"><ele>72.716919</ele><time>2007-08-02T17:43:54Z</time></trkpt>
<trkpt lat="48.04249263" lon="0.36862990"><ele>71.755493</ele><time>2007-08-02T17:44:02Z</time></trkpt>
<trkpt lat="48.04259053" lon="0.36923633"><ele>71.274902</ele><time>2007-08-02T17:44:08Z</time></trkpt>
<trkpt lat="48.04266245" lon="0.36997193"><ele>70.313477</ele><time>2007-08-02T17:44:15Z</time></trkpt>
<trkpt lat="48.04272674" lon="0.37091849"><ele>70.313477</ele><time>2007-08-02T17:44:24Z</time></trkpt>
<trkpt lat="48.04277653" lon="0.37160237"><ele>70.794189</ele><time>2007-08-02T17:44:31Z</time></trkpt>
<trkpt lat="48.04281207" lon="0.37233386"><ele>71.274902</ele><time>2007-08-02T17:44:39Z</time></trkpt>
<trkpt lat="48.04281936" lon="0.37241869"><ele>70.794189</ele><time>2007-08-02T17:44:40Z</time></trkpt>
<trkpt lat="48.04279145" lon="0.37308505"><ele>72.716919</ele><time>2007-08-02T17:44:48Z</time></trkpt>
<trkpt lat="48.04275775" lon="0.37326057"><ele>72.716919</ele><time>2007-08-02T17:44:52Z</time></trkpt>
<trkpt lat="48.04276764" lon="0.37324104"><ele>72.716919</ele><time>2007-08-02T17:44:54Z</time></trkpt>
<trkpt lat="48.04286504" lon="0.37312972"><ele>72.236206</ele><time>2007-08-02T17:44:59Z</time></trkpt>
<trkpt lat="48.04302606" lon="0.37304322"><ele>72.716919</ele><time>2007-08-02T17:45:03Z</time></trkpt>
<trkpt lat="48.04320183" lon="0.37295035"><ele>73.197632</ele><time>2007-08-02T17:45:07Z</time></trkpt>
<trkpt lat="48.04352009" lon="0.37276855"><ele>72.716919</ele><time>2007-08-02T17:45:14Z</time></trkpt>
<trkpt lat="48.04366208" lon="0.37271105"><ele>72.716919</ele><time>2007-08-02T17:45:17Z</time></trkpt>
<trkpt lat="48.04408754" lon="0.37249505"><ele>72.716919</ele><time>2007-08-02T17:45:26Z</time></trkpt>
<trkpt lat="48.04437194" lon="0.37235146"><ele>72.716919</ele><time>2007-08-02T17:45:32Z</time></trkpt>
<trkpt lat="48.04451276" lon="0.37230268"><ele>72.236206</ele><time>2007-08-02T17:45:35Z</time></trkpt>
<trkpt lat="48.04464863" lon="0.37222942"><ele>71.755493</ele><time>2007-08-02T17:45:38Z</time></trkpt>
<trkpt lat="48.04480243" lon="0.37218357"><ele>71.755493</ele><time>2007-08-02T17:45:41Z</time></trkpt>
<trkpt lat="48.04514366" lon="0.37202985"><ele>71.274902</ele><time>2007-08-02T17:45:48Z</time></trkpt>
<trkpt lat="48.04519136" lon="0.37200739"><ele>71.274902</ele><time>2007-08-02T17:45:49Z</time></trkpt>
<trkpt lat="48.04543217" lon="0.37188509"><ele>70.794189</ele><time>2007-08-02T17:45:54Z</time></trkpt>
<trkpt lat="48.04554314" lon="0.37184235"><ele>70.313477</ele><time>2007-08-02T17:45:56Z</time></trkpt>
<trkpt lat="48.04572562" lon="0.37171452"><ele>70.313477</ele><time>2007-08-02T17:46:00Z</time></trkpt>
<trkpt lat="48.04599032" lon="0.37157538"><ele>68.871582</ele><time>2007-08-02T17:46:05Z</time></trkpt>
<trkpt lat="48.04605335" lon="0.37155367"><ele>69.352295</ele><time>2007-08-02T17:46:06Z</time></trkpt>
<trkpt lat="48.04635267" lon="0.37141738"><ele>68.871582</ele><time>2007-08-02T17:46:11Z</time></trkpt>
<trkpt lat="48.04656079" lon="0.37131948"><ele>68.871582</ele><time>2007-08-02T17:46:15Z</time></trkpt>
<trkpt lat="48.04679842" lon="0.37120197"><ele>69.352295</ele><time>2007-08-02T17:46:20Z</time></trkpt>
<trkpt lat="48.04698458" lon="0.37111103"><ele>69.352295</ele><time>2007-08-02T17:46:24Z</time></trkpt>
<trkpt lat="48.04715272" lon="0.37113969"><ele>69.352295</ele><time>2007-08-02T17:46:28Z</time></trkpt>
<trkpt lat="48.04719404" lon="0.37124053"><ele>68.871582</ele><time>2007-08-02T17:46:30Z</time></trkpt>
<trkpt lat="48.04726822" lon="0.37153448"><ele>68.390869</ele><time>2007-08-02T17:46:35Z</time></trkpt>
<trkpt lat="48.04734953" lon="0.37193782"><ele>69.352295</ele><time>2007-08-02T17:46:42Z</time></trkpt>
<trkpt lat="48.04740929" lon="0.37227863"><ele>69.832886</ele><time>2007-08-02T17:46:48Z</time></trkpt>
<trkpt lat="48.04744164" lon="0.37237275"><ele>69.832886</ele><time>2007-08-02T17:46:50Z</time></trkpt>
<trkpt lat="48.04742312" lon="0.37262505"><ele>70.794189</ele><time>2007-08-02T17:46:55Z</time></trkpt>
<trkpt lat="48.04742396" lon="0.37273066"><ele>70.794189</ele><time>2007-08-02T17:46:57Z</time></trkpt>
<trkpt lat="48.04745229" lon="0.37294004"><ele>70.313477</ele><time>2007-08-02T17:47:02Z</time></trkpt>
<trkpt lat="48.04745866" lon="0.37297742"><ele>70.794189</ele><time>2007-08-02T17:47:03Z</time></trkpt>
<trkpt lat="48.04757475" lon="0.37330625"><ele>71.274902</ele><time>2007-08-02T17:47:10Z</time></trkpt>
<trkpt lat="48.04765119" lon="0.37364848"><ele>71.755493</ele><time>2007-08-02T17:47:16Z</time></trkpt>
<trkpt lat="48.04770643" lon="0.37395366"><ele>71.274902</ele><time>2007-08-02T17:47:22Z</time></trkpt>
<trkpt lat="48.04772663" lon="0.37418333"><ele>71.274902</ele><time>2007-08-02T17:47:28Z</time></trkpt>
<trkpt lat="48.04776686" lon="0.37436564"><ele>71.755493</ele><time>2007-08-02T17:47:33Z</time></trkpt>
<trkpt lat="48.04773987" lon="0.37447435"><ele>72.236206</ele><time>2007-08-02T17:47:37Z</time></trkpt>
<trkpt lat="48.04770668" lon="0.37452263"><ele>72.236206</ele><time>2007-08-02T17:47:39Z</time></trkpt>
<trkpt lat="48.04755748" lon="0.37464098"><ele>71.755493</ele><time>2007-08-02T17:47:45Z</time></trkpt>
<trkpt lat="48.04747844" lon="0.37474274"><ele>72.716919</ele><time>2007-08-02T17:47:49Z</time></trkpt>
<trkpt lat="48.04739764" lon="0.37482413"><ele>73.678223</ele><time>2007-08-02T17:47:52Z</time></trkpt>
<trkpt lat="48.04727535" lon="0.37492018"><ele>73.678223</ele><time>2007-08-02T17:47:56Z</time></trkpt>
<trkpt lat="48.04708449" lon="0.37506703"><ele>75.120239</ele><time>2007-08-02T17:48:02Z</time></trkpt>
<trkpt lat="48.04694443" lon="0.37518673"><ele>75.60083</ele><time>2007-08-02T17:48:07Z</time></trkpt>
<trkpt lat="48.04684318" lon="0.37530692"><ele>75.60083</ele><time>2007-08-02T17:48:11Z</time></trkpt>
<trkpt lat="48.04671854" lon="0.37529008"><ele>76.081421</ele><time>2007-08-02T17:48:15Z</time></trkpt>
<trkpt lat="48.04666439" lon="0.37522939"><ele>75.60083</ele><time>2007-08-02T17:48:17Z</time></trkpt>
<trkpt lat="48.04648317" lon="0.37505387"><ele>75.60083</ele><time>2007-08-02T17:48:23Z</time></trkpt>
<trkpt lat="48.04635887" lon="0.37486729"><ele>75.120239</ele><time>2007-08-02T17:48:28Z</time></trkpt>
<trkpt lat="48.04630640" lon="0.37479647"><ele>74.639526</ele><time>2007-08-02T17:48:30Z</time></trkpt>
<trkpt lat="48.04610188" lon="0.37455825"><ele>74.158813</ele><time>2007-08-02T17:48:36Z</time></trkpt>
<trkpt lat="48.04590692" lon="0.37427545"><ele>74.639526</ele><time>2007-08-02T17:48:42Z</time></trkpt>
<trkpt lat="48.04584556" lon="0.37417863"><ele>74.158813</ele><time>2007-08-02T17:48:44Z</time></trkpt>
<trkpt lat="48.04571036" lon="0.37398912"><ele>74.158813</ele><time>2007-08-02T17:48:48Z</time></trkpt>
<trkpt lat="48.04560089" lon="0.37386222"><ele>74.158813</ele><time>2007-08-02T17:48:51Z</time></trkpt>
<trkpt lat="48.04546192" lon="0.37367438"><ele>73.678223</ele><time>2007-08-02T17:48:55Z</time></trkpt>
<trkpt lat="48.04532873" lon="0.37349995"><ele>73.678223</ele><time>2007-08-02T17:48:59Z</time></trkpt>
<trkpt lat="48.04517233" lon="0.37316384"><ele>73.197632</ele><time>2007-08-02T17:49:05Z</time></trkpt>
<trkpt lat="48.04508398" lon="0.37301045"><ele>73.197632</ele><time>2007-08-02T17:49:08Z</time></trkpt>
<trkpt lat="48.04501785" lon="0.37291288"><ele>73.197632</ele><time>2007-08-02T17:49:10Z</time></trkpt>
<trkpt lat="48.04489656" lon="0.37269395"><ele>72.716919</ele><time>2007-08-02T17:49:14Z</time></trkpt>
<trkpt lat="48.04479657" lon="0.37240176"><ele>72.716919</ele><time>2007-08-02T17:49:19Z</time></trkpt>
<trkpt lat="48.04482498" lon="0.37224007"><ele>72.236206</ele><time>2007-08-02T17:49:22Z</time></trkpt>
<trkpt lat="48.04500385" lon="0.37212163"><ele>72.236206</ele><time>2007-08-02T17:49:26Z</time></trkpt>
<trkpt lat="48.04519529" lon="0.37203236"><ele>71.755493</ele><time>2007-08-02T17:49:30Z</time></trkpt>
<trkpt lat="48.04538858" lon="0.37194025"><ele>71.274902</ele><time>2007-08-02T17:49:34Z</time></trkpt>
<trkpt lat="48.04561984" lon="0.37184629"><ele>70.794189</ele><time>2007-08-02T17:49:39Z</time></trkpt>
<trkpt lat="48.04573257" lon="0.37198660"><ele>70.794189</ele><time>2007-08-02T17:49:44Z</time></trkpt>
<trkpt lat="48.04574012" lon="0.37210043"><ele>71.274902</ele><time>2007-08-02T17:49:46Z</time></trkpt>
<trkpt lat="48.04579158" lon="0.37245800"><ele>71.274902</ele><time>2007-08-02T17:49:52Z</time></trkpt>
<trkpt lat="48.04586040" lon="0.37260904"><ele>71.274902</ele><time>2007-08-02T17:49:56Z</time></trkpt>
<trkpt lat="48.04588010" lon="0.37262497"><ele>70.794189</ele><time>2007-08-02T17:49:57Z</time></trkpt>
<trkpt lat="48.04604958" lon="0.37253947"><ele>71.274902</ele><time>2007-08-02T17:50:01Z</time></trkpt>
<trkpt lat="48.04610473" lon="0.37250544"><ele>70.794189</ele><time>2007-08-02T17:50:02Z</time></trkpt>
<trkpt lat="48.04642794" lon="0.37235104"><ele>69.832886</ele><time>2007-08-02T17:50:08Z</time></trkpt>
<trkpt lat="48.04671074" lon="0.37220755"><ele>69.832886</ele><time>2007-08-02T17:50:14Z</time></trkpt>
<trkpt lat="48.04680822" lon="0.37215843"><ele>69.832886</ele><time>2007-08-02T17:50:16Z</time></trkpt>
<trkpt lat="48.04705147" lon="0.37205877"><ele>69.832886</ele><time>2007-08-02T17:50:21Z</time></trkpt>
<trkpt lat="48.04727166" lon="0.37195525"><ele>69.832886</ele><time>2007-08-02T17:50:26Z</time></trkpt>
<trkpt lat="48.04733444" lon="0.37197813"><ele>69.352295</ele><time>2007-08-02T17:50:28Z</time></trkpt>
<trkpt lat="48.04737048" lon="0.37217134"><ele>69.832886</ele><time>2007-08-02T17:50:32Z</time></trkpt>
<trkpt lat="48.04742144" lon="0.37242774"><ele>69.832886</ele><time>2007-08-02T17:50:37Z</time></trkpt>
<trkpt lat="48.04740669" lon="0.37269386"><ele>70.794189</ele><time>2007-08-02T17:50:42Z</time></trkpt>
<trkpt lat="48.04746763" lon="0.37298623"><ele>70.794189</ele><time>2007-08-02T17:50:48Z</time></trkpt>
<trkpt lat="48.04755103" lon="0.37317356"><ele>70.794189</ele><time>2007-08-02T17:50:52Z</time></trkpt>
<trkpt lat="48.04761398" lon="0.37339107"><ele>71.274902</ele><time>2007-08-02T17:50:57Z</time></trkpt>
<trkpt lat="48.04767977" lon="0.37374563"><ele>71.755493</ele><time>2007-08-02T17:51:04Z</time></trkpt>
<trkpt lat="48.04772814" lon="0.37395475"><ele>72.236206</ele><time>2007-08-02T17:51:08Z</time></trkpt>
<trkpt lat="48.04776167" lon="0.37428919"><ele>72.716919</ele><time>2007-08-02T17:51:14Z</time></trkpt>
<trkpt lat="48.04776879" lon="0.37438382"><ele>72.716919</ele><time>2007-08-02T17:51:16Z</time></trkpt>
<trkpt lat="48.04789075" lon="0.37444828"><ele>72.716919</ele><time>2007-08-02T17:51:21Z</time></trkpt>
<trkpt lat="48.04815897" lon="0.37430562"><ele>72.236206</ele><time>2007-08-02T17:51:28Z</time></trkpt>
<trkpt lat="48.04830112" lon="0.37422348"><ele>73.197632</ele><time>2007-08-02T17:51:32Z</time></trkpt>
<trkpt lat="48.04845552" lon="0.37418970"><ele>73.678223</ele><time>2007-08-02T17:51:36Z</time></trkpt>
<trkpt lat="48.04860380" lon="0.37424896"><ele>74.158813</ele><time>2007-08-02T17:51:40Z</time></trkpt>
<trkpt lat="48.04862844" lon="0.37428902"><ele>74.639526</ele><time>2007-08-02T17:51:41Z</time></trkpt>
<trkpt lat="48.04863883" lon="0.37462279"><ele>75.120239</ele><time>2007-08-02T17:51:47Z</time></trkpt>
<trkpt lat="48.04863364" lon="0.37467635"><ele>75.60083</ele><time>2007-08-02T17:51:48Z</time></trkpt>
<trkpt lat="48.04864696" lon="0.37481457"><ele>76.081421</ele><time>2007-08-02T17:51:51Z</time></trkpt>
<trkpt lat="48.04876037" lon="0.37483762"><ele>76.562134</ele><time>2007-08-02T17:51:55Z</time></trkpt>
<trkpt lat="48.04881502" lon="0.37497584"><ele>77.523438</ele><time>2007-08-02T17:51:59Z</time></trkpt>
<trkpt lat="48.04881594" lon="0.37527423"><ele>78.004028</ele><time>2007-08-02T17:52:04Z</time></trkpt>
<trkpt lat="48.04881703" lon="0.37541220"><ele>78.004028</ele><time>2007-08-02T17:52:06Z</time></trkpt>
<trkpt lat="48.04887135" lon="0.37607655"><ele>78.965454</ele><time>2007-08-02T17:52:15Z</time></trkpt>
<trkpt lat="48.04891258" lon="0.37669052"><ele>79.926636</ele><time>2007-08-02T17:52:23Z</time></trkpt>
<trkpt lat="48.04892516" lon="0.37693058"><ele>79.926636</ele><time>2007-08-02T17:52:26Z</time></trkpt>
<trkpt lat="48.04894335" lon="0.37716310"><ele>79.446045</ele><time>2007-08-02T17:52:29Z</time></trkpt>
<trkpt lat="48.04890228" lon="0.37744448"><ele>79.446045</ele><time>2007-08-02T17:52:33Z</time></trkpt>
<trkpt lat="48.04869658" lon="0.37796306"><ele>78.484741</ele><time>2007-08-02T17:52:41Z</time></trkpt>
<trkpt lat="48.04866666" lon="0.37802878"><ele>78.484741</ele><time>2007-08-02T17:52:42Z</time></trkpt>
<trkpt lat="48.04850732" lon="0.37835877"><ele>77.042847</ele><time>2007-08-02T17:52:47Z</time></trkpt>
<trkpt lat="48.04838385" lon="0.37860009"><ele>77.523438</ele><time>2007-08-02T17:52:51Z</time></trkpt>
<trkpt lat="48.04816928" lon="0.37913695"><ele>78.004028</ele><time>2007-08-02T17:52:59Z</time></trkpt>
<trkpt lat="48.04814514" lon="0.37919680"><ele>78.484741</ele><time>2007-08-02T17:53:00Z</time></trkpt>
<trkpt lat="48.04792578" lon="0.37961463"><ele>79.926636</ele><time>2007-08-02T17:53:08Z</time></trkpt>
<trkpt lat="48.04778379" lon="0.37984128"><ele>80.407471</ele><time>2007-08-02T17:53:13Z</time></trkpt>
<trkpt lat="48.04750158" lon="0.38026909"><ele>81.849365</ele><time>2007-08-02T17:53:23Z</time></trkpt>
<trkpt lat="48.04725858" lon="0.38064636"><ele>83.291382</ele><time>2007-08-02T17:53:32Z</time></trkpt>
<trkpt lat="48.04706245" lon="0.38100880"><ele>84.733398</ele><time>2007-08-02T17:53:40Z</time></trkpt>
<trkpt lat="48.04691174" lon="0.38128464"><ele>85.69458</ele><time>2007-08-02T17:53:46Z</time></trkpt>
<trkpt lat="48.04682365" lon="0.38140425"><ele>87.136597</ele><time>2007-08-02T17:53:49Z</time></trkpt>
<trkpt lat="48.04657630" lon="0.38173643"><ele>89.059326</ele><time>2007-08-02T17:53:58Z</time></trkpt>
<trkpt lat="48.04637983" lon="0.38205578"><ele>90.501343</ele><time>2007-08-02T17:54:06Z</time></trkpt>
<trkpt lat="48.04620045" lon="0.38232509"><ele>91.943237</ele><time>2007-08-02T17:54:13Z</time></trkpt>
<trkpt lat="48.04599719" lon="0.38254922"><ele>92.42395</ele><time>2007-08-02T17:54:20Z</time></trkpt>
<trkpt lat="48.04594673" lon="0.38252994"><ele>92.42395</ele><time>2007-08-02T17:54:30Z</time></trkpt>
<trkpt lat="48.04589753" lon="0.38236398"><ele>92.42395</ele><time>2007-08-02T17:54:35Z</time></trkpt>
<trkpt lat="48.04580038" lon="0.38206207"><ele>93.385132</ele><time>2007-08-02T17:54:41Z</time></trkpt>
<trkpt lat="48.04575655" lon="0.38184808"><ele>93.385132</ele><time>2007-08-02T17:54:45Z</time></trkpt>
<trkpt lat="48.04571103" lon="0.38161112"><ele>93.865845</ele><time>2007-08-02T17:54:50Z</time></trkpt>
<trkpt lat="48.04562353" lon="0.38133720"><ele>94.827148</ele><time>2007-08-02T17:54:56Z</time></trkpt>
<trkpt lat="48.04556720" lon="0.38116395"><ele>94.827148</ele><time>2007-08-02T17:55:00Z</time></trkpt>
<trkpt lat="48.04549654" lon="0.38092422"><ele>96.749878</ele><time>2007-08-02T17:55:05Z</time></trkpt>
<trkpt lat="48.04543594" lon="0.38067218"><ele>97.230469</ele><time>2007-08-02T17:55:10Z</time></trkpt>
<trkpt lat="48.04538439" lon="0.38042139"><ele>97.230469</ele><time>2007-08-02T17:55:15Z</time></trkpt>
<trkpt lat="48.04537978" lon="0.38037580"><ele>97.711182</ele><time>2007-08-02T17:55:16Z</time></trkpt>
<trkpt lat="48.04538439" lon="0.38025334"><ele>98.672485</ele><time>2007-08-02T17:55:20Z</time></trkpt>
<trkpt lat="48.04540115" lon="0.38008000"><ele>99.153076</ele><time>2007-08-02T17:55:25Z</time></trkpt>
<trkpt lat="48.04538112" lon="0.37997833"><ele>99.153076</ele><time>2007-08-02T17:55:29Z</time></trkpt>
<trkpt lat="48.04538229" lon="0.37991077"><ele>99.153076</ele><time>2007-08-02T17:55:38Z</time></trkpt>
<trkpt lat="48.04542588" lon="0.38001604"><ele>98.672485</ele><time>2007-08-02T17:55:42Z</time></trkpt>
<trkpt lat="48.04548179" lon="0.38007338"><ele>98.672485</ele><time>2007-08-02T17:55:52Z</time></trkpt>
<trkpt lat="48.04554356" lon="0.37992703"><ele>98.672485</ele><time>2007-08-02T17:55:57Z</time></trkpt>
<trkpt lat="48.04554448" lon="0.37987087"><ele>98.672485</ele><time>2007-08-02T17:55:59Z</time></trkpt>
<trkpt lat="48.04557332" lon="0.37962318"><ele>99.153076</ele><time>2007-08-02T17:56:05Z</time></trkpt>
<trkpt lat="48.04561875" lon="0.37940559"><ele>99.153076</ele><time>2007-08-02T17:56:10Z</time></trkpt>
<trkpt lat="48.04564306" lon="0.37915413"><ele>98.672485</ele><time>2007-08-02T17:56:15Z</time></trkpt>
<trkpt lat="48.04563325" lon="0.37891357"><ele>98.191895</ele><time>2007-08-02T17:56:21Z</time></trkpt>
<trkpt lat="48.04562420" lon="0.37885842"><ele>98.191895</ele><time>2007-08-02T17:56:23Z</time></trkpt>
<trkpt lat="48.04563903" lon="0.37872657"><ele>97.230469</ele><time>2007-08-02T17:56:35Z</time></trkpt>
<trkpt lat="48.04568337" lon="0.37878499"><ele>97.230469</ele><time>2007-08-02T17:56:54Z</time></trkpt>
<trkpt lat="48.04571548" lon="0.37892967"><ele>97.711182</ele><time>2007-08-02T17:56:59Z</time></trkpt>
<trkpt lat="48.04571707" lon="0.37896277"><ele>97.711182</ele><time>2007-08-02T17:57:00Z</time></trkpt>
<trkpt lat="48.04570542" lon="0.37922563"><ele>98.191895</ele><time>2007-08-02T17:57:06Z</time></trkpt>
<trkpt lat="48.04569620" lon="0.37944029"><ele>99.633789</ele><time>2007-08-02T17:57:10Z</time></trkpt>
<trkpt lat="48.04566736" lon="0.37967113"><ele>99.153076</ele><time>2007-08-02T17:57:14Z</time></trkpt>
<trkpt lat="48.04563208" lon="0.37983256"><ele>99.153076</ele><time>2007-08-02T17:57:17Z</time></trkpt>
<trkpt lat="48.04553107" lon="0.38005276"><ele>98.672485</ele><time>2007-08-02T17:57:22Z</time></trkpt>
<trkpt lat="48.04536629" lon="0.38019198"><ele>98.672485</ele><time>2007-08-02T17:57:27Z</time></trkpt>
<trkpt lat="48.04521399" lon="0.38030086"><ele>96.749878</ele><time>2007-08-02T17:57:31Z</time></trkpt>
<trkpt lat="48.04504056" lon="0.38046959"><ele>94.827148</ele><time>2007-08-02T17:57:35Z</time></trkpt>
<trkpt lat="48.04499866" lon="0.38050027"><ele>94.827148</ele><time>2007-08-02T17:57:36Z</time></trkpt>
<trkpt lat="48.04492389" lon="0.38058040"><ele>93.865845</ele><time>2007-08-02T17:57:38Z</time></trkpt>
<trkpt lat="48.04476555" lon="0.38075943"><ele>90.981934</ele><time>2007-08-02T17:57:43Z</time></trkpt>
<trkpt lat="48.04465575" lon="0.38094149"><ele>90.02063</ele><time>2007-08-02T17:57:48Z</time></trkpt>
<trkpt lat="48.04451192" lon="0.38119588"><ele>89.539917</ele><time>2007-08-02T17:57:53Z</time></trkpt>
<trkpt lat="48.04440203" lon="0.38147148"><ele>88.578735</ele><time>2007-08-02T17:57:58Z</time></trkpt>
<trkpt lat="48.04424856" lon="0.38170299"><ele>88.578735</ele><time>2007-08-02T17:58:04Z</time></trkpt>
<trkpt lat="48.04420447" lon="0.38174674"><ele>87.617188</ele><time>2007-08-02T17:58:19Z</time></trkpt>
<trkpt lat="48.04424428" lon="0.38168136"><ele>88.098022</ele><time>2007-08-02T17:58:21Z</time></trkpt>
<trkpt lat="48.04441008" lon="0.38139529"><ele>89.059326</ele><time>2007-08-02T17:58:29Z</time></trkpt>
<trkpt lat="48.04450597" lon="0.38116244"><ele>90.02063</ele><time>2007-08-02T17:58:35Z</time></trkpt>
<trkpt lat="48.04462189" lon="0.38093856"><ele>90.02063</ele><time>2007-08-02T17:58:41Z</time></trkpt>
<trkpt lat="48.04474259" lon="0.38084049"><ele>90.501343</ele><time>2007-08-02T17:58:46Z</time></trkpt>
<trkpt lat="48.04486345" lon="0.38071375"><ele>91.943237</ele><time>2007-08-02T17:58:51Z</time></trkpt>
<trkpt lat="48.04491517" lon="0.38065902"><ele>92.904541</ele><time>2007-08-02T17:58:53Z</time></trkpt>
<trkpt lat="48.04500528" lon="0.38055617"><ele>94.346558</ele><time>2007-08-02T17:58:57Z</time></trkpt>
<trkpt lat="48.04513536" lon="0.38047738"><ele>96.269287</ele><time>2007-08-02T17:59:02Z</time></trkpt>
<trkpt lat="48.04520477" lon="0.38042936"><ele>97.230469</ele><time>2007-08-02T17:59:05Z</time></trkpt>
<trkpt lat="48.04534667" lon="0.38039885"><ele>97.711182</ele><time>2007-08-02T17:59:11Z</time></trkpt>
<trkpt lat="48.04546469" lon="0.38052809"><ele>97.711182</ele><time>2007-08-02T17:59:15Z</time></trkpt>
<trkpt lat="48.04552076" lon="0.38069054"><ele>96.749878</ele><time>2007-08-02T17:59:18Z</time></trkpt>
<trkpt lat="48.04560835" lon="0.38098382"><ele>96.749878</ele><time>2007-08-02T17:59:23Z</time></trkpt>
<trkpt lat="48.04569360" lon="0.38129487"><ele>96.269287</ele><time>2007-08-02T17:59:28Z</time></trkpt>
<trkpt lat="48.04573777" lon="0.38144658"><ele>95.788452</ele><time>2007-08-02T17:59:30Z</time></trkpt>
<trkpt lat="48.04580826" lon="0.38171874"><ele>95.307739</ele><time>2007-08-02T17:59:34Z</time></trkpt>
<trkpt lat="48.04584179" lon="0.38192620"><ele>94.346558</ele><time>2007-08-02T17:59:37Z</time></trkpt>
<trkpt lat="48.04589284" lon="0.38212602"><ele>94.346558</ele><time>2007-08-02T17:59:40Z</time></trkpt>
<trkpt lat="48.04598277" lon="0.38248443"><ele>93.865845</ele><time>2007-08-02T17:59:46Z</time></trkpt>
<trkpt lat="48.04592284" lon="0.38261024"><ele>91.943237</ele><time>2007-08-02T17:59:49Z</time></trkpt>
<trkpt lat="48.04576702" lon="0.38269867"><ele>90.501343</ele><time>2007-08-02T17:59:52Z</time></trkpt>
<trkpt lat="48.04543829" lon="0.38289313"><ele>85.69458</ele><time>2007-08-02T17:59:58Z</time></trkpt>
<trkpt lat="48.04539009" lon="0.38292264"><ele>84.733398</ele><time>2007-08-02T17:59:59Z</time></trkpt>
<trkpt lat="48.04528037" lon="0.38300369"><ele>83.291382</ele><time>2007-08-02T18:00:01Z</time></trkpt>
<trkpt lat="48.04516763" lon="0.38311676"><ele>80.888184</ele><time>2007-08-02T18:00:03Z</time></trkpt>
<trkpt lat="48.04497544" lon="0.38327820"><ele>79.926636</ele><time>2007-08-02T18:00:06Z</time></trkpt>
<trkpt lat="48.04482498" lon="0.38337878"><ele>77.523438</ele><time>2007-08-02T18:00:08Z</time></trkpt>
<trkpt lat="48.04466346" lon="0.38353032"><ele>76.081421</ele><time>2007-08-02T18:00:10Z</time></trkpt>
<trkpt lat="48.04454788" lon="0.38368405"><ele>74.639526</ele><time>2007-08-02T18:00:12Z</time></trkpt>
<trkpt lat="48.04441838" lon="0.38388513"><ele>73.197632</ele><time>2007-08-02T18:00:15Z</time></trkpt>
<trkpt lat="48.04432173" lon="0.38401589"><ele>72.236206</ele><time>2007-08-02T18:00:18Z</time></trkpt>
<trkpt lat="48.04417396" lon="0.38427757"><ele>71.755493</ele><time>2007-08-02T18:00:23Z</time></trkpt>
<trkpt lat="48.04392837" lon="0.38470136"><ele>69.352295</ele><time>2007-08-02T18:00:30Z</time></trkpt>
<trkpt lat="48.04373760" lon="0.38496346"><ele>68.871582</ele><time>2007-08-02T18:00:35Z</time></trkpt>
<trkpt lat="48.04358488" lon="0.38517888"><ele>66.948975</ele><time>2007-08-02T18:00:40Z</time></trkpt>
<trkpt lat="48.04361715" lon="0.38536110"><ele>66.468262</ele><time>2007-08-02T18:00:44Z</time></trkpt>
<trkpt lat="48.04376283" lon="0.38575086"><ele>65.987671</ele><time>2007-08-02T18:00:50Z</time></trkpt>
<trkpt lat="48.04397975" lon="0.38628462"><ele>64.545654</ele><time>2007-08-02T18:00:57Z</time></trkpt>
<trkpt lat="48.04401630" lon="0.38636114"><ele>64.545654</ele><time>2007-08-02T18:00:58Z</time></trkpt>
<trkpt lat="48.04418653" lon="0.38664085"><ele>64.065063</ele><time>2007-08-02T18:01:02Z</time></trkpt>
<trkpt lat="48.04450865" lon="0.38714343"><ele>64.545654</ele><time>2007-08-02T18:01:10Z</time></trkpt>
<trkpt lat="48.04473982" lon="0.38754668"><ele>64.065063</ele><time>2007-08-02T18:01:16Z</time></trkpt>
<trkpt lat="48.04500913" lon="0.38806628"><ele>63.103638</ele><time>2007-08-02T18:01:23Z</time></trkpt>
<trkpt lat="48.04520166" lon="0.38863968"><ele>63.584351</ele><time>2007-08-02T18:01:30Z</time></trkpt>
<trkpt lat="48.04536637" lon="0.38931954"><ele>64.545654</ele><time>2007-08-02T18:01:39Z</time></trkpt>
<trkpt lat="48.04544147" lon="0.38986143"><ele>65.026367</ele><time>2007-08-02T18:01:46Z</time></trkpt>
<trkpt lat="48.04554792" lon="0.39053692"><ele>64.545654</ele><time>2007-08-02T18:01:54Z</time></trkpt>
<trkpt lat="48.04576484" lon="0.39145793"><ele>64.065063</ele><time>2007-08-02T18:02:05Z</time></trkpt>
<trkpt lat="48.04583970" lon="0.39178709"><ele>64.545654</ele><time>2007-08-02T18:02:09Z</time></trkpt>
<trkpt lat="48.04600624" lon="0.39254934"><ele>64.545654</ele><time>2007-08-02T18:02:18Z</time></trkpt>
<trkpt lat="48.04617723" lon="0.39316893"><ele>65.026367</ele><time>2007-08-02T18:02:26Z</time></trkpt>
<trkpt lat="48.04637119" lon="0.39387485"><ele>65.50708</ele><time>2007-08-02T18:02:35Z</time></trkpt>
<trkpt lat="48.04651159" lon="0.39453610"><ele>64.065063</ele><time>2007-08-02T18:02:42Z</time></trkpt>
<trkpt lat="48.04673128" lon="0.39518955"><ele>62.142334</ele><time>2007-08-02T18:02:49Z</time></trkpt>
<trkpt lat="48.04695189" lon="0.39558208"><ele>62.142334</ele><time>2007-08-02T18:02:54Z</time></trkpt>
<trkpt lat="48.04730116" lon="0.39602238"><ele>61.661743</ele><time>2007-08-02T18:03:01Z</time></trkpt>
<trkpt lat="48.04751406" lon="0.39618599"><ele>61.661743</ele><time>2007-08-02T18:03:05Z</time></trkpt>
<trkpt lat="48.04760543" lon="0.39632756"><ele>61.661743</ele><time>2007-08-02T18:03:08Z</time></trkpt>
<trkpt lat="48.04753385" lon="0.39650618"><ele>61.18103</ele><time>2007-08-02T18:03:11Z</time></trkpt>
<trkpt lat="48.04733142" lon="0.39666284"><ele>62.142334</ele><time>2007-08-02T18:03:15Z</time></trkpt>
<trkpt lat="48.04697704" lon="0.39679527"><ele>60.219727</ele><time>2007-08-02T18:03:21Z</time></trkpt>
<trkpt lat="48.04680227" lon="0.39701689"><ele>61.18103</ele><time>2007-08-02T18:03:25Z</time></trkpt>
<trkpt lat="48.04675785" lon="0.39727522"><ele>60.700317</ele><time>2007-08-02T18:03:28Z</time></trkpt>
<trkpt lat="48.04670538" lon="0.39801115"><ele>61.18103</ele><time>2007-08-02T18:03:36Z</time></trkpt>
<trkpt lat="48.04674368" lon="0.39855137"><ele>61.18103</ele><time>2007-08-02T18:03:42Z</time></trkpt>
<trkpt lat="48.04687830" lon="0.39894112"><ele>60.700317</ele><time>2007-08-02T18:03:47Z</time></trkpt>
<trkpt lat="48.04717778" lon="0.39947170"><ele>61.18103</ele><time>2007-08-02T18:03:55Z</time></trkpt>
<trkpt lat="48.04736168" lon="0.39999004"><ele>61.18103</ele><time>2007-08-02T18:04:02Z</time></trkpt>
<trkpt lat="48.04740275" lon="0.40014057"><ele>61.661743</ele><time>2007-08-02T18:04:04Z</time></trkpt>
<trkpt lat="48.04758355" lon="0.40041852"><ele>61.18103</ele><time>2007-08-02T18:04:09Z</time></trkpt>
<trkpt lat="48.04763443" lon="0.40044727"><ele>61.18103</ele><time>2007-08-02T18:04:10Z</time></trkpt>
<trkpt lat="48.04773602" lon="0.40049806"><ele>61.661743</ele><time>2007-08-02T18:04:12Z</time></trkpt>
<trkpt lat="48.04792277" lon="0.40075773"><ele>61.18103</ele><time>2007-08-02T18:04:17Z</time></trkpt>
<trkpt lat="48.04800558" lon="0.40101497"><ele>62.142334</ele><time>2007-08-02T18:04:21Z</time></trkpt>
<trkpt lat="48.04813734" lon="0.40126886"><ele>62.142334</ele><time>2007-08-02T18:04:27Z</time></trkpt>
<trkpt lat="48.04817053" lon="0.40129887"><ele>62.142334</ele><time>2007-08-02T18:04:42Z</time></trkpt>
<trkpt lat="48.04817992" lon="0.40131245"><ele>62.622925</ele><time>2007-08-02T18:04:43Z</time></trkpt>
<trkpt lat="48.04828470" lon="0.40142904"><ele>62.622925</ele><time>2007-08-02T18:04:49Z</time></trkpt>
<trkpt lat="48.04834706" lon="0.40150926"><ele>63.103638</ele><time>2007-08-02T18:04:54Z</time></trkpt>
<trkpt lat="48.04843440" lon="0.40167329"><ele>65.987671</ele><time>2007-08-02T18:05:01Z</time></trkpt>
<trkpt lat="48.04844270" lon="0.40169542"><ele>65.987671</ele><time>2007-08-02T18:05:02Z</time></trkpt>
<trkpt lat="48.04849827" lon="0.40181335"><ele>67.910278</ele><time>2007-08-02T18:05:07Z</time></trkpt>
<trkpt lat="48.04853993" lon="0.40186130"><ele>69.352295</ele><time>2007-08-02T18:05:10Z</time></trkpt>
<trkpt lat="48.04858980" lon="0.40191293"><ele>70.794189</ele><time>2007-08-02T18:05:14Z</time></trkpt>
<trkpt lat="48.04860807" lon="0.40199700"><ele>72.716919</ele><time>2007-08-02T18:05:17Z</time></trkpt>
<trkpt lat="48.04861243" lon="0.40202625"><ele>72.716919</ele><time>2007-08-02T18:05:18Z</time></trkpt>
<trkpt lat="48.04862307" lon="0.40214427"><ele>74.639526</ele><time>2007-08-02T18:05:22Z</time></trkpt>
<trkpt lat="48.04861972" lon="0.40224183"><ele>76.081421</ele><time>2007-08-02T18:05:25Z</time></trkpt>
<trkpt lat="48.04862576" lon="0.40237703"><ele>77.042847</ele><time>2007-08-02T18:05:29Z</time></trkpt>
<trkpt lat="48.04866574" lon="0.40255205"><ele>78.965454</ele><time>2007-08-02T18:05:35Z</time></trkpt>
<trkpt lat="48.04867303" lon="0.40257904"><ele>79.446045</ele><time>2007-08-02T18:05:36Z</time></trkpt>
<trkpt lat="48.04870882" lon="0.40270946"><ele>79.446045</ele><time>2007-08-02T18:05:41Z</time></trkpt>
<trkpt lat="48.04871745" lon="0.40273813"><ele>80.407471</ele><time>2007-08-02T18:05:42Z</time></trkpt>
<trkpt lat="48.04868485" lon="0.40297735"><ele>82.330078</ele><time>2007-08-02T18:05:49Z</time></trkpt>
<trkpt lat="48.04861846" lon="0.40316233"><ele>83.771973</ele><time>2007-08-02T18:05:54Z</time></trkpt>
<trkpt lat="48.04854537" lon="0.40339929"><ele>84.252686</ele><time>2007-08-02T18:06:00Z</time></trkpt>
<trkpt lat="48.04846692" lon="0.40388863"><ele>85.213989</ele><time>2007-08-02T18:06:09Z</time></trkpt>
<trkpt lat="48.04850657" lon="0.40452263"><ele>85.69458</ele><time>2007-08-02T18:06:20Z</time></trkpt>
<trkpt lat="48.04851436" lon="0.40457980"><ele>85.69458</ele><time>2007-08-02T18:06:21Z</time></trkpt>
<trkpt lat="48.04860472" lon="0.40485875"><ele>86.656006</ele><time>2007-08-02T18:06:26Z</time></trkpt>
<trkpt lat="48.04871712" lon="0.40509420"><ele>85.69458</ele><time>2007-08-02T18:06:30Z</time></trkpt>
<trkpt lat="48.04889892" lon="0.40543785"><ele>84.733398</ele><time>2007-08-02T18:06:35Z</time></trkpt>
<trkpt lat="48.04909925" lon="0.40590162"><ele>82.330078</ele><time>2007-08-02T18:06:40Z</time></trkpt>
<trkpt lat="48.04913638" lon="0.40601444"><ele>82.330078</ele><time>2007-08-02T18:06:41Z</time></trkpt>
<trkpt lat="48.04921618" lon="0.40638903"><ele>80.888184</ele><time>2007-08-02T18:06:44Z</time></trkpt>
<trkpt lat="48.04928608" lon="0.40678365"><ele>78.484741</ele><time>2007-08-02T18:06:47Z</time></trkpt>
<trkpt lat="48.04933964" lon="0.40719772"><ele>77.042847</ele><time>2007-08-02T18:06:50Z</time></trkpt>
<trkpt lat="48.04934509" lon="0.40748279"><ele>75.120239</ele><time>2007-08-02T18:06:52Z</time></trkpt>
<trkpt lat="48.04934006" lon="0.40762587"><ele>75.120239</ele><time>2007-08-02T18:06:53Z</time></trkpt>
<trkpt lat="48.04931659" lon="0.40791119"><ele>73.197632</ele><time>2007-08-02T18:06:55Z</time></trkpt>
<trkpt lat="48.04934928" lon="0.40846037"><ele>72.716919</ele><time>2007-08-02T18:06:59Z</time></trkpt>
<trkpt lat="48.04939706" lon="0.40869288"><ele>72.716919</ele><time>2007-08-02T18:07:01Z</time></trkpt>
<trkpt lat="48.04953519" lon="0.40943602"><ele>72.236206</ele><time>2007-08-02T18:07:08Z</time></trkpt>
<trkpt lat="48.04964432" lon="0.41015334"><ele>71.274902</ele><time>2007-08-02T18:07:15Z</time></trkpt>
<trkpt lat="48.04977953" lon="0.41105406"><ele>70.313477</ele><time>2007-08-02T18:07:24Z</time></trkpt>
<trkpt lat="48.04980425" lon="0.41164013"><ele>69.832886</ele><time>2007-08-02T18:07:30Z</time></trkpt>
<trkpt lat="48.04973334" lon="0.41249307"><ele>66.948975</ele><time>2007-08-02T18:07:38Z</time></trkpt>
<trkpt lat="48.04969294" lon="0.41304376"><ele>65.987671</ele><time>2007-08-02T18:07:43Z</time></trkpt>
<trkpt lat="48.04965028" lon="0.41363100"><ele>65.026367</ele><time>2007-08-02T18:07:49Z</time></trkpt>
<trkpt lat="48.04963913" lon="0.41369436"><ele>65.026367</ele><time>2007-08-02T18:07:50Z</time></trkpt>
<trkpt lat="48.04953268" lon="0.41375639"><ele>64.545654</ele><time>2007-08-02T18:07:53Z</time></trkpt>
<trkpt lat="48.04948549" lon="0.41374910"><ele>64.065063</ele><time>2007-08-02T18:07:54Z</time></trkpt>
<trkpt lat="48.04909104" lon="0.41367416"><ele>63.584351</ele><time>2007-08-02T18:08:02Z</time></trkpt>
<trkpt lat="48.04876263" lon="0.41360996"><ele>63.103638</ele><time>2007-08-02T18:08:10Z</time></trkpt>
<trkpt lat="48.04862970" lon="0.41350720"><ele>63.103638</ele><time>2007-08-02T18:08:14Z</time></trkpt>
<trkpt lat="48.04847119" lon="0.41343679"><ele>62.622925</ele><time>2007-08-02T18:08:19Z</time></trkpt>
</trkseg></trk></gpx>